XML Sitemap

This is a XML Sitemap which is supposed to be processed by search engines which follow the XML Sitemap standard like Ask.com, Bing, Google and Yahoo.
It was generated using the WordPress content management system and the Google Sitemap Generator Plugin by Arne Brachhold.
You can find more information about XML sitemaps on sitemaps.org and Google's list of sitemap programs.

URLPriorityChange frequencyLast modified (GMT)
https://www.jpvrporn.com/2018/03/31/the-dellai-twins-my-stepsisters-fantasy-03-11-2017/100%Daily2018-04-01 11:19
https://www.jpvrporn.com/2018/03/31/dafne-hot-wet-and-naked-mar-31-2018/100%Daily2018-03-31 20:41
https://www.jpvrporn.com/2018/03/31/bridgette-b-dylan-snow-big-tits-video-bridgette-b-2018-03-31/100%Daily2018-03-31 20:36
https://www.jpvrporn.com/2018/03/31/katherina-hartlova-sex-with-your-big-tits-tennis-teammate-2017-04/100%Daily2018-03-31 20:29
https://www.jpvrporn.com/2018/03/31/marica-hase-sexy-asian-hottie-squirts-in-front-of-you-2016-11/100%Daily2018-03-31 20:10
https://www.jpvrporn.com/2018/03/31/oops-i-fucked-my-step-dad-part-1-kieraaka-rosaline-rose-gear-vr-2/100%Daily2018-03-31 20:02
https://www.jpvrporn.com/2018/03/31/naughty-neighbour-pt-2-alexis-fawx-gear-vr/100%Daily2018-03-31 19:59
https://www.jpvrporn.com/2018/03/31/escape-from-asscatraz-jessa-rhodes-oculus-r-2/100%Daily2018-03-31 19:57
https://www.jpvrporn.com/2018/03/31/bunny-game-ali-bordeaux-samantha-rone-violetta-gear-vroculusr/100%Daily2018-04-10 21:34
https://www.jpvrporn.com/2018/03/31/horny-welcome-pov-dylan-brown-oculus-r/100%Daily2018-03-31 19:53
https://www.jpvrporn.com/2018/03/31/wow-059-%e3%82%82%e3%81%97%e3%82%82%e5%bd%bc%e5%a5%b3%e3%81%8cav%e5%a5%b3%e5%84%aa-%e4%b8%89%e8%8b%ab%e3%81%86%e3%81%bf%e3%81%a0%e3%81%a3%e3%81%9f%e3%82%89%e3%80%80%e5%a4%a2%e3%81%ae%e5%9b%9b/100%Daily2018-04-16 16:58
https://www.jpvrporn.com/2018/03/31/kmvr-022-%e3%80%90vr%e3%80%91%e6%98%9f%e7%be%8e%e3%82%8a%e3%81%8bvr-%e3%81%8a%e3%82%84%e3%81%99%e3%81%bf%e5%89%8d%e3%81%ae%e3%83%a9%e3%83%96%e3%83%a9%e3%83%96sex%e3%80%8c%e3%81%aa%e3%82%93%e3%81%a0/100%Daily2018-04-01 10:41
https://www.jpvrporn.com/2018/03/31/bzvr-009-%e3%80%90vr%e3%80%91%e6%8e%a1%e7%94%a8%e5%80%8d%e7%8e%8750%e5%80%8d%e8%b6%85%e9%9b%a3%e9%96%a2%ef%bc%81%ef%bc%81%e3%80%8c%e8%b6%85%e7%be%8e%e4%ba%ba%e3%81%a7%e3%82%a8%e3%83%ad%e3%81%84/100%Daily2018-04-02 13:05
https://www.jpvrporn.com/2018/03/31/etvco-021-%e3%80%90vr%e3%80%91%e3%80%8c%e3%81%aa%e3%83%bb%e3%81%8b%e3%83%bb%e3%81%a0%e3%83%bb%e3%81%97%e3%83%bb%e3%81%be%e3%83%bb%e2%97%8f%e3%83%bb%e3%81%93%ef%bc%88%e3%83%8f%e3%83%bc%e3%83%88/100%Daily2018-04-01 10:41
https://www.jpvrporn.com/2018/03/31/divr-002-%e3%80%90vr%e3%80%91%e3%83%88%e3%83%83%e3%83%97%e3%83%ac%e3%82%b9%e3%81%a7%e8%b6%85%e3%83%9f%e3%83%8b%e3%82%b9%e3%82%ab%e3%81%ae%e3%81%8a%e5%a7%89%e3%81%95%e3%82%93%e9%81%94%e3%81%8c%e3%80%81/100%Daily2018-04-01 10:41
https://www.jpvrporn.com/2018/03/30/joseline-kelly-redhead-joseline-kelly-and-her-big-dildo-2017-02/100%Daily2018-03-30 21:36
https://www.jpvrporn.com/2018/03/30/sarah-vandella-bed-butt-beyond-29-mar-2018/100%Daily2018-03-30 21:33
https://www.jpvrporn.com/2018/03/30/katya-rodriguez-veronica-rodriguez-petite-lesbians-gone-wild-2018-01/100%Daily2018-03-30 21:31
https://www.jpvrporn.com/2018/03/30/jessica-bell-pussy-for-free-anal-sex-for-money-2017-04/100%Daily2018-03-30 21:29
https://www.jpvrporn.com/2018/03/30/lily-adams-piano-sex-lesson-with-teen-in-vr-2017-08/100%Daily2018-03-30 21:26
https://www.jpvrporn.com/2018/03/30/alexis-adams-quick-sex-with-your-lover-2017-11/100%Daily2018-03-30 21:23
https://www.jpvrporn.com/2018/03/30/riley-reid-riley-reid-and-her-sex-toys-are-suspect-2016-11/100%Daily2018-03-30 21:21
https://www.jpvrporn.com/2018/03/30/sophia-leone-spa-day-march-29-2018/100%Daily2018-03-30 21:18
https://www.jpvrporn.com/2018/03/30/3d-vr-estelle-mounty-french-easter-2018-03-29/100%Daily2018-03-30 21:15
https://www.jpvrporn.com/2018/03/30/oops-i-fucked-my-step-dad-part-1-kieraaka-rosaline-rose-gear-vr/100%Daily2018-03-30 21:07
https://www.jpvrporn.com/2018/03/30/escape-from-asscatraz-jessa-rhodes-oculus-r/100%Daily2018-03-30 21:03
https://www.jpvrporn.com/2018/03/30/zoe-parker-gear-vr/100%Daily2018-03-30 20:59
https://www.jpvrporn.com/2018/03/30/peyton-coast-gear-vr-2/100%Daily2018-03-30 20:57
https://www.jpvrporn.com/2018/03/30/oops-i-fucked-my-best-friends-wife-pt-1-nathaly-cherie-gearvr/100%Daily2018-03-30 20:54
https://www.jpvrporn.com/2018/03/30/naughty-neighbour-pt-1-busty-blonde-pornstar-alexis-fawx-oculusr/100%Daily2018-03-30 20:52
https://www.jpvrporn.com/2018/03/30/kmvr-377-kvr1804-5-%e3%80%90vr%e3%80%91%e5%a6%b9%ef%bc%88%e3%82%8c%e3%81%aa%ef%bc%89%e3%81%a8%e5%a7%89%ef%bc%88%e7%be%8e%e9%88%b4%ef%bc%89%e3%81%ab%e6%8c%9f%e3%81%be%e3%82%8c%e3%83%90%e3%82%a4/100%Daily2018-04-01 10:41
https://www.jpvrporn.com/2018/03/30/kmvr-375-kvr1803-14-%e3%80%90vr%e3%80%91%e3%81%9f%ef%bd%9e%e3%81%a3%e3%81%b7%e3%82%8a%e3%83%99%e3%83%ad%e3%83%81%e3%83%a5%e3%83%bc%e3%81%97%e3%81%aa%e3%81%8c%e3%82%89%e5%b7%a8%e4%b9%b3%e3%83%8f/100%Daily2018-04-01 10:41
https://www.jpvrporn.com/2018/03/30/exvr-124-%e3%80%90%e8%b6%85%e9%ab%98%e7%94%bb%e8%b3%aa%e3%80%91%e3%83%99%e3%83%ad%e3%82%ad%e3%82%b9%e5%a4%9a%e3%82%81%e3%81%ae%e3%81%ac%e3%81%b7%e3%81%ac%e3%81%b7%e4%b8%ad%e5%87%ba%e3%81%97%ef%bd%93/100%Daily2018-04-01 10:41
https://www.jpvrporn.com/2018/03/30/mivr-010-%e3%80%90vr%e3%80%91%e3%82%a8%e3%83%ad%e3%83%96%e3%83%ab%e3%83%9e%e3%83%bc%e7%97%b4%e5%a5%b3%e3%83%88%e3%83%ac%e3%83%bc%e3%83%8b%e3%83%b3%e3%82%b0sex2%ef%bc%81/100%Daily2018-04-01 10:41
https://www.jpvrporn.com/2018/03/30/mivr-008-%e3%80%90vr%e3%80%91%e3%82%a8%e3%83%ad%e4%bd%93%e6%93%8d%e7%9d%80%e3%81%a7%e3%82%bb%e3%82%af%e3%82%b7%e3%83%bc%e3%82%b9%e3%83%88%e3%83%ac%e3%83%83%e3%83%81/100%Daily2018-04-01 10:41
https://www.jpvrporn.com/2018/03/30/opg-006-%e3%80%90vr%e3%80%91%e3%81%a1%e3%81%bb%e3%81%a1%e3%82%83%e3%82%93%e3%81%ae%e6%9c%80%e9%ab%98%e3%81%ae%e3%83%88%e3%83%ad%e3%83%88%e3%83%ad%e3%81%be%e3%82%93%e3%81%93%e3%81%ab%e4%b8%ad%e5%87%ba/100%Daily2018-04-01 10:41
https://www.jpvrporn.com/2018/03/30/jvrporn-100100-2018-03-29-special-day-with-special-nurse/100%Daily2018-03-30 18:26
https://www.jpvrporn.com/2018/03/30/mike-mancini-jade-luv-do-you-like-my-costume-what-about-my-lingerie-mar-30-2018/100%Daily2018-03-30 18:21
https://www.jpvrporn.com/2018/03/29/katrin-tequila-orgasmic-encounter-mar-28-2018/100%Daily2018-03-29 22:32
https://www.jpvrporn.com/2018/03/29/aiden-ashley-rainy-daze-march-28-2018/100%Daily2018-03-29 22:29
https://www.jpvrporn.com/2018/03/29/alexa-nova-shrima-malati-sexy-lesbian-foot-fetish-mar-28-2018/100%Daily2018-03-29 22:26
https://www.jpvrporn.com/2018/03/29/alex-black-nilf-neighbour-i-would-like-to-fuck-2017-04/100%Daily2018-03-29 22:24
https://www.jpvrporn.com/2018/03/29/julie-kay-jamaican-chocolate-for-a-dinner-2017-12/100%Daily2018-03-29 22:21
https://www.jpvrporn.com/2018/03/29/veronica-clark-office-playtime-march-28-2018/100%Daily2018-03-29 22:19
https://www.jpvrporn.com/2018/03/29/kenzie-taylor-mature-peepshow-2017-04/100%Daily2018-03-29 22:18
https://www.jpvrporn.com/2018/03/29/charli-red-redhead-shows-off-her-cock-riding-skills-march-28-2018/100%Daily2018-03-29 22:15
https://www.jpvrporn.com/2018/03/29/jackie-wood-jackie-wood-vr-horny-brunette-2017-02/100%Daily2018-04-05 10:26
https://www.jpvrporn.com/2018/03/29/katy-rose-nurse-will-take-care-of-you-2017-12/100%Daily2018-03-29 22:10
https://www.jpvrporn.com/2018/03/29/brandi-love-milf-and-her-pink-friend-2018-02/100%Daily2018-03-29 22:07
https://www.jpvrporn.com/2018/03/29/gina-gerson-mary-jane-needs-your-cock-2017-11/100%Daily2018-03-29 22:04
https://www.jpvrporn.com/2018/03/29/katy-rose-katy-rose-tempts-with-her-ass-in-vr-porn-2017-01/100%Daily2018-03-29 22:01
https://www.jpvrporn.com/2018/03/29/bridgette-b-luna-star-ryan-driller-thirsty-mar-28-2018/100%Daily2018-03-29 21:59
https://www.jpvrporn.com/2018/03/29/sperm-bank-britney-amber-oculus-r/100%Daily2018-03-29 21:45
https://www.jpvrporn.com/2018/03/29/liza-rowe-gear-vr/100%Daily2018-03-29 21:39
https://www.jpvrporn.com/2018/03/29/peyton-coast-gear-vr/100%Daily2018-03-29 21:37
https://www.jpvrporn.com/2018/03/29/city-of-sin-shrima-malati-pov-oculus-r/100%Daily2018-03-29 21:35
https://www.jpvrporn.com/2018/03/29/maya-bijou-gear-vr/100%Daily2018-03-29 21:42
https://www.jpvrporn.com/2018/03/29/rainy-day-monica-sage-oculus-r/100%Daily2018-03-29 21:30
https://www.jpvrporn.com/2018/03/29/orgasmic-encounter-katrin-tequila-oculus-r/100%Daily2018-03-29 21:22
https://www.jpvrporn.com/2018/03/29/3dsvr-235-%e3%80%90vr%e3%80%91g%e3%82%ab%e3%83%83%e3%83%97%e5%ae%b6%e5%ba%ad%e6%95%99%e5%b8%ab%e3%82%86%e3%81%86%e3%82%8a%e5%85%88%e7%94%9f%e3%81%8c%e6%af%8e%e6%97%a5%e3%83%9f%e3%83%8b%e3%82%b9/100%Daily2018-04-11 15:18
https://www.jpvrporn.com/2018/03/29/exvr-119-%e3%80%90%e5%8c%a0%e3%80%91%e6%b3%a2%e6%9c%a8%e3%81%af%e3%82%8b%e3%81%8b%e3%81%8c%e9%a0%91%e5%bc%b5%e3%82%8b%e3%81%82%e3%81%aa%e3%81%9f%e3%82%92%e5%bf%9c%e6%8f%b4-%e6%ae%8b%e6%a5%ad%e4%b8%ad/100%Daily2018-04-01 10:42
https://www.jpvrporn.com/2018/03/29/wow-060-%e3%82%82%e3%81%97%e3%82%82%e5%bd%bc%e5%a5%b3%e3%81%8cav%e5%a5%b3%e5%84%aa-%e5%84%aa%e6%9c%88%e3%81%be%e3%82%8a%e3%81%aa%e3%81%a0%e3%81%a3%e3%81%9f%e3%82%89%e3%80%80%e5%a4%a2%e3%81%ae/100%Daily2018-04-16 16:59
https://www.jpvrporn.com/2018/03/29/osl-024-%e5%a5%b3%e5%ad%90%e9%ab%98%e7%94%9f%e3%81%ae%e6%97%a5%e5%b8%b8%ef%bc%81%ef%bc%9f%e3%80%80%e3%80%80%ef%bd%8d%e5%b0%82%e7%94%a8%e3%80%82%e3%83%96%e3%83%ab%e3%83%9e%e5%a7%bf%e3%81%a7%e8%87%aa/100%Daily2018-04-01 10:42
https://www.jpvrporn.com/2018/03/28/kylie-page-gear-vr/100%Daily2018-04-05 10:25
https://www.jpvrporn.com/2018/03/28/list-of-demands-carmen-anderson-sarah-smith-oculus-r/100%Daily2018-03-28 19:56
https://www.jpvrporn.com/2018/03/28/kinsley-eden-gear-vr/100%Daily2018-03-28 19:54
https://www.jpvrporn.com/2018/03/28/jojo-kiss-gear-vr/100%Daily2018-03-28 19:52
https://www.jpvrporn.com/2018/03/28/chloe-couture-gear-vr/100%Daily2018-03-28 19:50
https://www.jpvrporn.com/2018/03/28/cece-capella-gear-vr/100%Daily2018-03-28 19:48
https://www.jpvrporn.com/2018/03/28/ashlee-mae-gear-vr/100%Daily2018-03-28 19:46
https://www.jpvrporn.com/2018/03/28/ariel-grace-gear-vr/100%Daily2018-03-28 19:45
https://www.jpvrporn.com/2018/03/28/shane-blair-gear-vr/100%Daily2018-03-28 19:42
https://www.jpvrporn.com/2018/03/28/vovs-232-%e3%80%90vr%e3%80%91%e9%95%b7%e5%b0%ba%e3%83%bb%e9%ab%98%e7%94%bb%e8%b3%aavr-%e5%a4%a9%e9%87%8e%e7%be%8e%e5%84%aa-%e7%94%9f%e4%b8%ad%e5%87%ba%e3%81%97-%e3%83%8a%e3%83%b3%e3%83%91%e3%81%97/100%Daily2018-04-01 10:42
https://www.jpvrporn.com/2018/03/28/kvr1803-7-%e3%80%90%e5%8c%a0%e3%80%91%e5%8f%af%e6%84%9b%e3%81%99%e3%81%8e%e3%82%8b%e9%96%a2%e8%a5%bf%e5%bc%81%e5%bd%bc%e5%a5%b3%e3%81%a8%e3%81%84%e3%81%a1%e3%82%83%e3%81%84%e3%81%a1%e3%82%83%e3%83%a9/100%Daily2018-04-11 15:43
https://www.jpvrporn.com/2018/03/28/kvr1803-19-%e3%80%90%e5%8c%a0%e3%80%91%e3%82%b8%e3%83%a9%e3%81%97%e8%aa%98%e6%83%91%e3%80%80%e6%95%8f%e6%84%9f%e7%be%8e%e4%b9%b3%e3%81%8a%e5%a7%89%e3%81%95%e3%82%93%e3%81%a8%e3%81%ad%e3%81%a3%e3%81%a8/100%Daily2018-04-09 10:49
https://www.jpvrporn.com/2018/03/28/3dsvr-216-%e3%80%90vr%e3%80%91%e7%b4%a0%e4%ba%ba%e3%83%8a%e3%83%b3%e3%83%91vr-%e3%83%9e%e3%82%b8%e3%83%83%e3%82%af%e3%83%9f%e3%83%a9%e3%83%bc%e5%8f%b7x%e7%ab%a5%e8%b2%9e%e7%ad%86%e4%b8%8b/100%Daily2018-04-01 10:42
https://www.jpvrporn.com/2018/03/28/bmvr-006-%e3%80%90vr%e3%80%91%e6%b2%b3%e9%9f%b3%e3%81%8f%e3%82%8b%e3%81%bf-%e3%81%8a%e3%82%82%e3%81%a6%e3%81%aa%e3%81%97%e3%82%aa%e3%83%8a%e3%83%8b%e3%83%bc/100%Daily2018-04-01 10:42
https://www.jpvrporn.com/2018/03/28/bmvr-005-%e3%80%90vr%e3%80%91%e6%b2%b3%e9%9f%b3%e3%81%8f%e3%82%8b%e3%81%bf-%e3%81%8a%e9%a2%a8%e5%91%82%e3%83%95%e3%82%a7%e3%83%a9/100%Daily2018-04-01 10:42
https://www.jpvrporn.com/2018/03/28/jvrporn-100099-let-your-doctor-know-if-you-can-not-go-sleep/100%Daily2018-04-01 10:42
https://www.jpvrporn.com/2018/03/28/wavr-002-%e3%80%90vr%e3%80%91%e3%83%87%e3%82%ab%e5%b0%bb%e3%83%9e%e3%83%8b%e3%82%a2%e3%83%83%e3%82%af%e3%82%b9vr-%e5%80%89%e5%a4%9a%e3%81%be%e3%81%8a/100%Daily2018-04-01 10:42
https://www.jpvrporn.com/2018/03/27/omella-morgan-virtual-reality-porn-dreams-come-true-2017-03/100%Daily2018-03-27 19:59
https://www.jpvrporn.com/2018/03/27/carmen-caliente-dowse-the-spouse-march-26-2018/100%Daily2018-03-27 19:57
https://www.jpvrporn.com/2018/03/27/august-ames-virtual-reality-sex-with-august-ames-2017-06/100%Daily2018-03-27 19:54
https://www.jpvrporn.com/2018/03/27/angel-princess-czech-vr-casting-113-busty-teen-first-time-in-vr-mar-26-2018/100%Daily2018-03-27 19:52
https://www.jpvrporn.com/2018/03/27/alexis-crystal-mandy-satan-in-high-heels-starring-mandy-paradise-and-alexis-crystal-03-26-2018/100%Daily2018-03-27 19:49
https://www.jpvrporn.com/2018/03/27/vinna-reed-vinna-reed-masturbating-with-a-dildo-2017-04/100%Daily2018-03-27 19:47
https://www.jpvrporn.com/2018/03/27/anna-bell-peaks-virtual-reality-bang-ink-2018-02/100%Daily2018-03-27 19:45
https://www.jpvrporn.com/2018/03/27/kimber-woods-dylan-snow-my-girlfriend-naughtyamerica-mar-26-2018/100%Daily2018-03-27 19:42
https://www.jpvrporn.com/2018/03/27/angel-wicky-vr-anal-sex-with-blonde-milf-2017-08/100%Daily2018-03-27 19:39
https://www.jpvrporn.com/2018/03/27/darcia-lee-nick-ross-thief-in-training-2018-03-27/100%Daily2018-04-10 21:27
https://www.jpvrporn.com/2018/03/27/vrex082-%e3%80%90%e7%84%a1%e6%96%99-%e5%8c%a0%e3%80%91%e3%83%90%e3%82%a4%e3%83%8e%e3%83%bc%e3%83%a9%e3%83%ab%e3%81%9d%e3%81%ae%e5%89%8d%e3%81%ab%ef%bc%81%e5%84%aa%e3%81%97%e3%81%84%e7%ac%91%e9%a1%94/100%Daily2018-04-01 10:43
https://www.jpvrporn.com/2018/03/27/cafr-181-%e3%80%90vr%e3%80%91%e8%a3%8f%e3%82%af%e3%83%81%e3%82%b3%e3%83%9f%e8%a9%95%e4%be%a15%e3%81%ae%e3%83%93%e3%82%b8%e3%83%8d%e3%82%b9%e3%83%9b%e3%83%86%e3%83%ab-%e3%83%9e%e3%83%83%e3%82%b5/100%Daily2018-04-01 10:43
https://www.jpvrporn.com/2018/03/27/oycvr-008-%e3%80%90vr%e3%80%91vr%e9%95%b7%e5%b0%ba-%e5%bd%93%e7%84%b6%e3%80%81%e5%8b%9d%e6%89%8b%e3%81%abav%e5%8c%96%ef%bc%81%e3%82%a4%e3%82%b1%e3%83%a1%e3%83%b3%e3%81%ae%e5%8f%8b%e9%81%94%e3%81%8c/100%Daily2018-04-01 10:43
https://www.jpvrporn.com/2018/03/27/3dsvr-240-%e3%80%90vr%e3%80%91%e5%af%86%e5%ae%a4%e3%83%ad%e3%83%83%e3%82%ab%e3%83%bc%e5%86%85vr-%e6%b0%b4%e6%b3%b3%e9%83%a8%e3%81%ae%e5%be%8c%e8%bc%a9%e5%a5%b3%e5%ad%90%e3%81%a8%e9%83%a8%e5%ae%a4/100%Daily2018-04-11 15:19
https://www.jpvrporn.com/2018/03/27/3dsvr-219-%e3%80%90vr%e3%80%91%e7%9c%8b%e8%ad%b7%e5%b8%ab%e3%81%8c%e5%90%90%e7%b2%be%e3%81%97%e3%81%a6%e3%81%8f%e3%82%8c%e3%82%8b%e5%85%a5%e9%99%a2%e6%82%a3%e8%80%85%e3%81%ae1%e6%97%a5%e3%82%92/100%Daily2018-04-01 10:43
https://www.jpvrporn.com/2018/03/27/extk297-300-%e9%ad%85%e3%81%9b%e3%81%a4%e3%81%91vr%e3%80%80%e6%b5%b7%e7%a9%ba%e8%8a%b1-2/100%Daily2018-04-01 10:43
https://www.jpvrporn.com/2018/03/27/vdog135-%e6%bd%9c%e5%85%a5%ef%bc%81%ef%bc%9f%e4%b9%b1%e4%ba%a4%e3%83%91%e3%83%bc%e3%83%86%e3%82%a3%e3%83%bc/100%Daily2018-04-01 10:43
https://www.jpvrporn.com/2018/03/27/wavr-001-%e3%80%90vr%e3%80%91%e7%b4%a0%e4%ba%ba%e3%83%95%e3%82%a1%e3%83%b3%e4%bd%93%e9%a8%93vr-%e3%81%a4%e3%81%bc%e3%81%bf%e3%81%ae%e5%87%84%e3%83%86%e3%82%af%e3%82%92%e6%88%91%e6%85%a2%e3%81%a7/100%Daily2018-04-01 10:43
https://www.jpvrporn.com/2018/03/26/stvr-002-setagayavr-002-%e3%80%90vr%e3%80%91%e5%a6%8a%e5%a8%a0%e3%82%a6%e3%82%a7%e3%83%ab%e3%82%ab%e3%83%a0%e3%81%aa%e6%a5%b5%e4%b8%8a%e3%83%9c%e3%83%87%e3%82%a3%e3%81%ae%e5%bd%bc%e5%a5%b3%e3%81%a8s/100%Daily2018-04-01 10:43
https://www.jpvrporn.com/2018/03/26/jessa-rhodes/100%Daily2018-03-26 19:54
https://www.jpvrporn.com/2018/03/26/alina-lopez-dirty-laundry/100%Daily2018-03-26 19:52
https://www.jpvrporn.com/2018/03/26/arian-joy-czech-vr-202-soothing-secretary-czechvr-mar-24-2018/100%Daily2018-03-26 16:02
https://www.jpvrporn.com/2018/03/26/denisa-explicit-revelation-from-a-busty-gymnast-tmwvrnet-teenmegaworld-march-24-2018/100%Daily2018-03-26 15:59
https://www.jpvrporn.com/2018/03/26/anya-ivy-bridgette-b-interracial-lesbian-hot-bang-2018-02/100%Daily2018-03-26 15:57
https://www.jpvrporn.com/2018/03/26/jolee-love-how-we-shot-banana-challenge-march-24-2018/100%Daily2018-03-26 15:55
https://www.jpvrporn.com/2018/03/26/anya-ivy-bridgette-b-interracial-vr-threesome-2017-12/100%Daily2018-03-26 15:53
https://www.jpvrporn.com/2018/03/26/mivr-030-%e7%aa%81%e7%84%b6%e8%a8%aa%e5%95%8f%e3%80%80%e3%83%9f%e3%83%8b%e3%82%b9%e3%82%ab%e3%82%ae%e3%83%a3%e3%83%ab%e3%81%a8%e9%a3%b2%e3%81%bf%e6%9c%83%e4%ba%82%e4%ba%a4-2/100%Daily2018-04-01 10:43
https://www.jpvrporn.com/2018/03/26/oycvr-012-%e3%80%90vr%e3%80%91vr%e9%95%b7%e5%b0%ba-%e8%a6%aa%e5%8f%8b%e3%81%ae%e5%bd%bc%e5%a5%b3%e3%81%af%e5%ae%9f%e3%81%af%e3%83%9c%e3%82%af%e3%81%ae%e3%82%bb%e3%83%95%e3%83%ac%ef%bc%81%ef%bc%81/100%Daily2018-04-01 10:43
https://www.jpvrporn.com/2018/03/26/wpvr-109-%e3%80%90vr%e3%80%91%e3%83%8a%e3%83%9e%e6%ae%ba%e3%81%97%e5%9b%9e%e6%98%a5%e5%b0%82%e7%a7%91%e3%83%bb%e7%88%86%e4%b9%b3%e7%84%a6%e3%83%a9%e3%82%b7%e5%a0%82-kaori/100%Daily2018-04-01 10:43
https://www.jpvrporn.com/2018/03/26/wpvr-108-%e3%80%90vr%e3%80%91%e4%bf%ba%e3%81%ab%e3%83%a1%e3%83%ad%e3%83%a1%e3%83%ad%e3%81%aa%e9%9a%a0%e3%82%8c%e5%b7%a8%e4%b9%b3%e3%81%ae%e3%83%a1%e3%82%ac%e3%83%8djd%e3%83%90%e3%82%a4%e3%83%88/100%Daily2018-04-05 10:24
https://www.jpvrporn.com/2018/03/26/ebvr-004-%e3%80%90vr%e3%80%91%e3%82%aa%e3%83%8a%e3%83%9bvr-%e3%82%aa%e3%83%8a%e3%83%8b%e3%83%bc%e3%81%ae%e5%ae%8c%e6%88%90%e5%bd%a2%ef%bc%81%e5%90%89%e5%b7%9d%e3%81%82%e3%81%84%e3%81%bf%e3%81%a8/100%Daily2018-04-01 10:43
https://www.jpvrporn.com/2018/03/26/clvr-002-%e3%80%90vr%e3%80%91%e7%9b%b8%e5%b8%ad%e5%b1%85%e9%85%92%e5%b1%8b%e3%81%a7%e3%83%8a%e3%83%b3%e3%83%91%e3%81%97%e3%81%9f%e5%b7%a8%e4%b9%b3ol2%e4%ba%ba%e7%b5%84%e3%82%92%e3%81%8a%e6%8c%81/100%Daily2018-04-01 10:43
https://www.jpvrporn.com/2018/03/26/bzvr-008-%e3%80%90vr%e3%80%91%e9%95%b7%e5%b0%bavr-%e5%ad%a6%e5%9c%92%e3%81%ae%e3%82%a2%e3%82%a4%e3%83%89%e3%83%ab%e5%9b%9b%e5%a4%a9%e7%8e%8b%e3%82%92%e7%9b%97%e6%92%ae%e3%81%8b%e3%82%89%e3%81%ae/100%Daily2018-04-02 15:07
https://www.jpvrporn.com/2018/03/26/avvr-318-%e3%80%90vr%e3%80%91%e8%a3%8f%e9%a2%a8%e4%bf%97%e6%9c%80%e5%89%8d%e7%b7%9a%ef%bc%81%ef%bc%81%e7%8f%be%e4%bb%a3%e3%81%ab%e6%ae%8b%e3%82%8b%e6%95%b0%e5%b0%91%e3%81%aa%e3%81%84%e4%bc%9d%e8%aa%ac/100%Daily2018-04-04 19:37
https://www.jpvrporn.com/2018/03/26/avvr-315-%e3%80%90vr%e3%80%91%e5%a8%98%e3%81%ae%e5%bd%bc%e6%b0%8f%e3%82%92%e5%af%9d%e5%8f%96%e3%82%8a%e6%80%a7%e6%95%99%e8%82%b2-%e6%af%8d%e3%81%ae%e3%82%aa%e3%83%9e%e3%83%b3%e3%82%b3%e3%81%9a/100%Daily2018-04-01 10:43
https://www.jpvrporn.com/2018/03/25/penelope-cum-overwatch-sombra-a-xxx-parody-vrcosplayx-march-23-2018/100%Daily2018-03-25 21:30
https://www.jpvrporn.com/2018/03/25/tina-kay-gym-fuck-with-tina-kay-sexbabesvr-mar-23-2018/100%Daily2018-03-25 21:03
https://www.jpvrporn.com/2018/03/25/michael-vegas-cali-carter-youre-my-favorite-study-buddy-vrhush-mar-24-2018/100%Daily2018-03-25 20:55
https://www.jpvrporn.com/2018/03/25/blair-williams-maxim-law-side-by-side-wankzvr-23-march-2018/100%Daily2018-03-25 20:53
https://www.jpvrporn.com/2018/03/25/raven-bay-hot-brunette-masturbating-in-vr-2017-02/100%Daily2018-03-25 20:50
https://www.jpvrporn.com/2018/03/25/marley-brinx-wonder-woman-a-xxx-parody-23-march-2018/100%Daily2018-03-25 20:46
https://www.jpvrporn.com/2018/03/25/victoria-p-hot-blonde-masturbating-before-sex-date-with-you-2017-05/100%Daily2018-03-25 20:44
https://www.jpvrporn.com/2018/03/25/kayla-kayden-nicole-aniston-ryan-driller-pse-2-porn-star-experience-naughtyamerica-mar-23-2018/100%Daily2018-03-25 20:41
https://www.jpvrporn.com/2018/03/25/luna-corazon-interracial-180-porn-with-ebony-2017-06/100%Daily2018-03-25 20:39
https://www.jpvrporn.com/2018/03/25/lucia-denvile-hot-brunette-chick-and-her-best-silicon-friend-2017-05/100%Daily2018-03-25 20:37
https://www.jpvrporn.com/2018/03/25/daisy-lee-hot-blonde-wants-you-to-fuck-her-2018-01/100%Daily2018-03-25 20:18
https://www.jpvrporn.com/2018/03/25/alix-lynx-hot-alix-lynx-masturbating-2017-02/100%Daily2018-03-25 20:15
https://www.jpvrporn.com/2018/03/25/lucy-heart-the-spy-who-fucked-me-march-24-2018/100%Daily2018-03-25 20:13
https://www.jpvrporn.com/2018/03/25/barbara-sweet-wearing-wet-denims-virtualpee-mar-24-2018/100%Daily2018-03-25 20:11
https://www.jpvrporn.com/2018/03/25/patty-michova-im-on-way-highway-to-sex-2018-01/100%Daily2018-03-25 20:04
https://www.jpvrporn.com/2018/03/25/silvy-vee-pov-with-preggo-sily-vee-03-23-2018/100%Daily2018-03-25 20:02
https://www.jpvrporn.com/2018/03/25/andi-rye-catch-her-in-the-rye-march-22-2018/100%Daily2018-03-25 20:00
https://www.jpvrporn.com/2018/03/25/kennedy-kressler-fucking-kennedy-kressler-milfvr-22-mar-2018/100%Daily2018-03-25 19:56
https://www.jpvrporn.com/2018/03/25/cafr-180-%e3%80%90vr%e3%80%91w%e3%83%96%e3%83%83%e3%82%ad%e3%83%b3%e3%82%b0%e3%81%a7%e3%81%86%e3%81%a3%e3%81%8b%e3%82%8a3p%e3%82%bb%e3%83%83%e3%82%af%e3%82%b9-%e7%a5%9e%e3%83%a6%e3%82%ad-%e8%8a%b1/100%Daily2018-04-01 10:43
https://www.jpvrporn.com/2018/03/25/dsvr-019-%e3%80%90vr%e3%80%91%e5%8f%b2%e4%b8%8a%e6%9c%80%e7%8b%82%e3%81%ae%e3%82%a4%e3%83%a9%e3%83%9e%e3%83%81%e3%82%aavr-%e6%a3%ae%e8%8b%ba%e8%8e%89/100%Daily2018-04-01 10:43
https://www.jpvrporn.com/2018/03/25/prdvr-021-prvr-021-%e3%80%90%e5%8c%a0%e3%80%91-%e3%80%8c%e3%81%82%e3%81%84%e3%82%8a%e3%81%8c%e9%a0%91%e5%bc%b5%e3%81%a3%e3%81%a6%e5%b0%bd%e3%81%8f%e3%81%97%e3%81%be%e3%81%99%ef%bc%81%e3%80%8d/100%Daily2018-04-01 10:43
https://www.jpvrporn.com/2018/03/25/prmx-001-%e3%80%90%e5%8c%a0%e3%80%91%e8%84%b1%e5%87%ba%e3%82%b2%e3%83%bc%e3%83%a0vr-%e3%80%90%e9%ab%98%e7%94%bb%e8%b3%aa%ef%bc%86%e3%82%a8%e3%83%b3%e3%83%87%e3%82%a3%e3%83%b3%e3%82%b0%e9%81%b8/100%Daily2018-04-01 10:43
https://www.jpvrporn.com/2018/03/25/crvr-009-%e3%80%90vr%e3%80%91%e6%b3%a2%e5%a4%9a%e9%87%8e%e7%b5%90%e8%a1%a3-%e3%82%8f%e3%81%8c%e3%81%be%e3%81%be%e7%97%b4%e5%a5%b3%e3%81%af%e6%89%8b%e3%82%b3%e3%82%ad%e3%81%a8%e8%a6%96%e7%b7%9a/100%Daily2018-04-01 10:44
https://www.jpvrporn.com/2018/03/25/afes114-%e8%a6%97%e3%81%8d%e3%81%97%e3%81%a6%e3%81%9f%e3%82%89%e3%82%84%e3%81%b0%e3%81%84%e3%81%a8%e3%81%93%e3%82%92%e8%a6%8b%e3%81%a6%e3%81%97%e3%81%be%e3%81%a3%e3%81%9f%ef%bd%97/100%Daily2018-04-01 10:44
https://www.jpvrporn.com/2018/03/25/sqvr-007-%e3%80%90vr%e3%80%91%e3%82%86%e3%81%86%e3%81%93%e3%81%95%e3%82%93%ef%bc%8821%e6%ad%b3%ef%bc%89%e5%a4%a7%e5%ad%a6%e7%94%9f-%e4%b8%89%e8%bb%92%e8%8c%b6%e5%b1%8b%e5%9c%a8%e4%bd%8f-153cm-b87-w5-2/100%Daily2018-04-01 10:44
https://www.jpvrporn.com/2018/03/25/nhvr-010-%e3%80%90vr%e3%80%91%e7%8b%ac%e5%8d%a0-%e6%b7%b7%e6%b5%b4%e6%b8%a9%e6%b3%89%e7%97%b4%e6%bc%a2-vr/100%Daily2018-04-01 10:44
https://www.jpvrporn.com/2018/03/25/vovs-394-%e9%95%b7%e5%b0%ba42%e5%88%86%e3%83%bb%e9%ab%98%e7%94%bb%e8%b3%aa-%e5%ae%8c%e5%85%a8%e9%a1%94%e5%87%ba%e3%81%97%ef%bc%81%e8%b6%85%e8%b2%b4%e9%87%8da%e3%82%ab%e3%83%83%e3%83%97%e6%bf%80/100%Daily2018-04-01 10:44
https://www.jpvrporn.com/2018/03/25/vovs-386-%e9%95%b7%e5%b0%ba41%e5%88%86%e3%83%bb%e9%ab%98%e7%94%bb%e8%b3%aa-%e7%be%8e%e7%a5%9e%e4%b9%b3-%e3%82%aa%e3%82%a4%e3%83%ab%e3%83%9e%e3%83%83%e3%82%b5-%e9%ab%98%e5%b6%8b%e3%82%86%e3%81%84/100%Daily2018-04-01 10:44
https://www.jpvrporn.com/2018/03/25/vovs-375-%e9%95%b7%e5%b0%ba42%e5%88%86%e3%83%bb%e9%ab%98%e7%94%bb%e8%b3%aa-%e3%81%82%e3%81%ae%e3%83%89%e3%82%ad%e3%83%89%e3%82%ad%e3%82%92%e3%82%82%e3%81%86%e4%b8%80%e5%ba%a6-%e5%87%a6%e5%a5%b3/100%Daily2018-04-01 10:44
https://www.jpvrporn.com/2018/03/25/vovs-379-%e9%95%b7%e5%b0%ba45%e5%88%86%e3%83%bb%e9%ab%98%e7%94%bb%e8%b3%aa-%e7%94%b7%e5%a5%b3%e3%81%ae%e5%8f%8b%e6%83%85%ef%bc%9f%e5%bd%bc%e6%b0%8f%e3%81%a8%e9%9b%bb%e8%a9%b1%e4%b8%ad%e3%81%ae/100%Daily2018-04-01 10:44
https://www.jpvrporn.com/2018/03/25/wpvr-107-%e3%80%90vr%e3%80%91%e6%b8%a9%e6%b3%89%e6%97%85%e9%a4%a8%e3%81%ae%e4%bb%b2%e5%b1%85%e3%81%95%e3%82%93%e3%81%a8%e5%a3%b0%e3%82%ac%e3%83%9e%e3%83%b3%e6%80%a7%e4%ba%a4%e3%81%a7%e3%82%82-2-2/100%Daily2018-03-25 15:22
https://www.jpvrporn.com/2018/03/25/wpvr-106-%e3%80%90vr%e3%80%91%e6%8e%a5%e5%90%bb%e3%81%97%e3%81%be%e3%81%8f%e3%82%8a%e6%b7%ab%e5%8f%a3%e3%82%88%e3%81%a0%e3%82%8c%e3%82%a2%e3%82%a4%e3%83%89%e3%83%ab-%e5%8d%97%e6%a2%a8%e5%a4%ae-2-2/100%Daily2018-03-25 15:19
https://www.jpvrporn.com/2018/03/25/cafr-186-%e8%a3%8f%e3%82%af%e3%83%81%e3%82%b3%e3%83%9f%e8%a9%95%e4%be%a15%e3%81%ae%e3%83%93%e3%82%b8%e3%83%8d%e3%82%b9%e3%83%9b%e3%83%86%e3%83%ab-%e3%83%9e%e3%83%83%e3%82%b5%e3%83%bc%e3%82%b8%e7%b7%a8/100%Daily2018-04-01 10:44
https://www.jpvrporn.com/2018/03/24/daisy-lee-hard-fuck-with-hot-petite-stepsister-2017-03/100%Daily2018-03-24 13:57
https://www.jpvrporn.com/2018/03/24/megan-rain-hard-fuck-promise-with-megan-rain-2017-07/100%Daily2018-03-24 13:53
https://www.jpvrporn.com/2018/03/24/omella-morgan-great-life-great-girl-great-sex-2017-04/100%Daily2018-03-24 13:51
https://www.jpvrporn.com/2018/03/24/kvr1803-24-%e3%80%90%e5%8c%a0%e3%80%91%e3%82%80%e3%81%a3%e3%81%a1%e3%82%8a%e5%b7%a8%e4%b9%b3%e3%81%a8%e7%b5%b6%e5%af%be%e9%a0%98%e5%9f%9f%e3%82%92%e3%81%bf%e3%81%9b%e3%81%a4%e3%81%91%e3%81%a6%e3%81%8f/100%Daily2018-04-04 16:28
https://www.jpvrporn.com/2018/03/24/kvr1803-23-%e3%80%90%e5%8c%a0%e3%80%91%e3%82%80%e3%81%a3%e3%81%a1%e3%82%8a%e5%b7%a8%e4%b9%b3%e9%ab%98%e5%af%86%e7%9d%80%ef%bc%81%e9%85%94%e3%81%a3%e3%81%a6%e7%97%b4%e5%a5%b3%e5%8c%96%e3%81%97%e3%81%9f/100%Daily2018-04-04 16:25
https://www.jpvrporn.com/2018/03/24/kmvr-033-%e3%80%90vr%e3%80%91aika-vr-2%e4%ba%ba%e3%81%8d%e3%82%8a%e3%81%ae%e7%a9%ba%e9%96%93%e3%81%a7%e3%82%a4%e3%83%81%e3%83%a3%e3%82%a4%e3%83%81%e3%83%a3%e6%bf%83%e5%8e%9a%e8%88%8c%e3%83%94%e3%82%a2/100%Daily2018-04-01 10:44
https://www.jpvrporn.com/2018/03/24/afes217-%e3%81%8a%e5%a7%89%e3%81%95%e3%82%93%e3%82%92%e3%82%a4%e3%82%ab%e3%81%9b%e3%81%be%e3%81%8f%e3%81%a3%e3%81%a6%e3%81%bf%e3%81%9f%ef%bc%81/100%Daily2018-04-01 10:44
https://www.jpvrporn.com/2018/03/24/mmvra-001-%e3%80%90%e5%8c%a0%e3%80%91%e3%82%ab%e3%83%8e%e3%82%b8%e3%83%a7%e3%81%ae%e5%8b%a4%e5%8b%99%e3%81%97%e3%81%a6%e3%81%84%e3%82%8b%e7%97%85%e9%99%a2%e3%81%ab%e5%85%a5%e9%99%a2%e3%81%97%e3%81%9f/100%Daily2018-04-01 10:44
https://www.jpvrporn.com/2018/03/23/opvr-006-%e3%80%90vr%e3%80%91%e7%b5%b6%e6%99%afvr%ef%bc%81%e8%84%b1%e7%b3%9e%e8%a6%8b%e3%81%9b%e3%81%a4%e3%81%91%e7%b3%9e%e3%83%95%e3%82%a7%e3%83%a9%e9%81%8a%e6%88%af%ef%bc%81-%e7%a5%9e%e5%b4%8e/100%Daily2018-04-01 10:44
https://www.jpvrporn.com/2018/03/23/hunvr-005-%e3%80%90vr%e3%80%91vr%e9%95%b7%e5%b0%ba%e3%80%8c%e7%a7%81%e3%81%a7%e3%82%88%e3%81%8b%e3%81%a3%e3%81%9f%e3%82%89-%e3%82%bb%e3%83%83%e3%82%af%e3%82%b9%e6%95%99%e3%81%88%e3%81%a6%e3%81%82/100%Daily2018-04-01 10:44
https://www.jpvrporn.com/2018/03/23/kvr-dance-%e3%80%90%e5%8c%a0%ef%bd%a5%e7%84%a1%e6%96%99%e3%80%91%e6%9e%a2%e6%9c%a8%e3%81%82%e3%81%8a%e3%81%84-%ef%bd%96%ef%bd%92%e3%81%a7%e8%b8%8a%e3%81%a3%e3%81%a6%e3%81%bf%e3%81%9f-%e3%83%a1/100%Daily2018-04-01 10:44
https://www.jpvrporn.com/2018/03/23/kmvr-370-%e3%80%90vr%e3%80%91%e3%80%8c%e6%8e%88%e6%a5%ad%e3%81%ae%e3%83%8e%e3%83%bc%e3%83%88%e5%8f%96%e3%81%a3%e3%81%a6%e3%81%8d%e3%81%9f%e3%82%88%e3%81%94%e8%a4%92%e7%be%8e%e3%81%ab/100%Daily2018-04-04 16:07
https://www.jpvrporn.com/2018/03/23/3dsvr-236-%e3%80%90vr%e3%80%91%e5%a5%bd%e8%a9%95vr%e3%82%b7%e3%83%aa%e3%83%bc%e3%82%ba-%e5%8f%8b%e4%ba%ba%e5%a4%ab%e5%a9%a6%e3%81%a84%e4%ba%ba%e3%81%a7%e6%b8%a9%e6%b3%89%e6%97%85%e8%a1%8c%e3%80%81/100%Daily2018-03-23 17:30
https://www.jpvrporn.com/2018/03/23/wpvr-001-%e3%80%90vr%e3%80%91%e3%82%ad%e3%82%b9%e3%81%a8%e3%83%a8%e3%83%80%e3%83%ac%e3%81%a8%e6%89%8b%e3%82%b3%e3%82%ad%e8%b2%ac%e3%82%81%e3%80%81%e3%81%8a%e3%81%be%e3%81%91%e3%81%ab%e3%83%95%e3%82%a7/100%Daily2018-03-23 17:30
https://www.jpvrporn.com/2018/03/23/opg-009-%e3%80%90vr%e3%80%91%e5%b7%a8%e4%b9%b3%e3%81%ae%e5%a5%a5%e3%81%95%e3%82%93%e3%81%8c%e3%82%aa%e2%97%8b%e3%83%b3%e3%82%b3%e8%a6%8b%e3%81%9b%e3%81%a4%e3%81%91%e3%82%aa%e3%83%8a%e3%83%8b%e3%83%bc/100%Daily2018-03-23 17:30
https://www.jpvrporn.com/2018/03/23/afes115-121-%e3%82%ae%e3%83%a3%e3%83%ab%e3%81%ae%e3%81%8a%e9%83%a8%e5%b1%8b%e3%82%92%e8%a6%97%e3%81%84%e3%81%a6%e3%81%bf%e3%81%9f%e3%81%a3%e3%81%9f%ef%bd%97/100%Daily2018-03-23 17:30
https://www.jpvrporn.com/2018/03/23/katana-fresh-wet-and-tight-asian-pussy-2017-09/100%Daily2018-03-23 16:11
https://www.jpvrporn.com/2018/03/23/jureka-del-mar-hard-fuck-with-exotic-tattooed-student-2017-10/100%Daily2018-03-23 20:08
https://www.jpvrporn.com/2018/03/23/lola-ver-ill-show-you-a-good-time-lola-ver-stockingsvr-03-20-2018/100%Daily2018-03-23 16:04
https://www.jpvrporn.com/2018/03/23/anya-olsen-happy-tree-vr-porn-fuck-friends-2017-03/100%Daily2018-03-23 16:01
https://www.jpvrporn.com/2018/03/23/stephie-staar-stephie-staar-spectacular-squirting-yanksvr-march-21-2018/100%Daily2018-03-23 15:58
https://www.jpvrporn.com/2018/03/23/lady-dee-everyday-fuck-with-lovely-girl-2017-11/100%Daily2018-03-23 15:55
https://www.jpvrporn.com/2018/03/23/alex-black-rihanna-samuel-silvia-dellai-sweet-cat-tatum-reed-dreamed-group-sex-with-5-sexy-babes-2017-01/100%Daily2018-03-23 15:53
https://www.jpvrporn.com/2018/03/23/elena-koshka-jaze-summers-kenzie-reeves-piper-perri-group-sex-with-students-chapter-2-2017-10/100%Daily2018-04-05 10:22
https://www.jpvrporn.com/2018/03/23/angel-wicky-misha-cross-ffm-vr-threesome-sex-virtualrealitybang-2017-07/100%Daily2018-03-23 15:37
https://www.jpvrporn.com/2018/03/23/canela-skin-czech-vr-fetish-118-exotic-pussy-on-your-face-mar-21-2018/100%Daily2018-03-23 15:35
https://www.jpvrporn.com/2018/03/23/dillion-harper-hardcore-sex-with-young-dillion-harper-2017-01/100%Daily2018-03-23 15:32
https://www.jpvrporn.com/2018/03/23/alexa-tomas-cockablanca-2017-05/100%Daily2018-03-23 15:27
https://www.jpvrporn.com/2018/03/23/annabelle-doll-shes-got-the-moves-starring-annabelle-doll-stockingsvr-03-19-2018/100%Daily2018-03-23 15:24
https://www.jpvrporn.com/2018/03/23/marie-pearl-horny-high-risk-prisoner-virtualtaboo-march-21-2018/100%Daily2018-03-23 15:19
https://www.jpvrporn.com/2018/03/23/raica-lima-raica-lima-transexvr-03-19-2018/100%Daily2018-03-23 15:11
https://www.jpvrporn.com/2018/03/23/naomi-bennet-fuck-and-play-2018-03/100%Daily2018-03-23 15:02
https://www.jpvrporn.com/2018/03/23/jenna-sativa-brand-new-bangs-babevr-march-21-2018/100%Daily2018-03-23 14:58
https://www.jpvrporn.com/2018/03/23/marley-brinx-bambino-cum-on-my-face-naughtyamerica-mar-21-2018/100%Daily2018-03-23 14:56
https://www.jpvrporn.com/2018/03/23/3d-vr-nathaly-cherie-give-her-what-she-wants-2018-03/100%Daily2018-03-23 14:53
https://www.jpvrporn.com/2018/03/23/tsvr-004-%e3%80%90vr%e3%80%91%e3%82%a8%e3%83%ac%e3%82%ac-%e8%97%a4%e5%b6%8b%e3%82%82%e3%81%aa%e3%81%bf-%e7%ac%ac2%e7%ab%a0/100%Daily2018-03-23 13:44
https://www.jpvrporn.com/2018/03/23/tsvr-003-%e3%80%90vr%e3%80%91%e3%82%a8%e3%83%ac%e3%82%ac-%e8%97%a4%e5%b6%8b%e3%82%82%e3%81%aa%e3%81%bf-%e7%ac%ac1%e7%ab%a0/100%Daily2018-03-23 13:44
https://www.jpvrporn.com/2018/03/23/tsvr-002-%e3%80%90vr%e3%80%91%e3%82%a8%e3%83%ac%e3%82%ac-%e8%8b%a5%e5%8e%9f%e9%ba%bb%e5%b8%8c-%e7%ac%ac2%e7%ab%a0/100%Daily2018-03-23 13:40
https://www.jpvrporn.com/2018/03/23/tsvr-001-%e3%80%90vr%e3%80%91%e3%82%a8%e3%83%ac%e3%82%ac-%e8%8b%a5%e5%8e%9f%e9%ba%bb%e5%b8%8c-%e7%ac%ac1%e7%ab%a0/100%Daily2018-03-23 13:44
https://www.jpvrporn.com/2018/03/22/cafr-179-%e3%80%90vr%e3%80%91%e8%a3%8f%e3%82%af%e3%83%81%e3%82%b3%e3%83%9f%e8%a9%95%e4%be%a15%e3%81%ae%e3%83%93%e3%82%b8%e3%83%8d%e3%82%b9%e3%83%9b%e3%83%86%e3%83%ab-%e3%83%9e%e3%83%83%e3%82%b5/100%Daily2018-03-23 13:44
https://www.jpvrporn.com/2018/03/22/wpvr-102-%e3%80%90vr%e3%80%91%e3%82%b3%e3%82%bf%e3%83%84%e3%81%ae%e4%b8%ad%e3%81%a7%e3%83%90%e3%83%ac%e3%81%aa%e3%81%84%e3%82%88%e3%81%86%e3%81%ab%e5%ae%b6%e6%97%8f%e3%81%ab%e5%86%85%e7%b7%92%e3%81%a7/100%Daily2018-03-25 15:22
https://www.jpvrporn.com/2018/03/22/exvr-126-%e3%83%99%e3%83%ad%e3%82%ad%e3%82%b9%e5%a4%9a%e3%82%81%e3%81%ae%e3%81%ac%e3%81%b7%e3%81%ac%e3%81%b7%e4%b8%ad%e5%87%ba%e3%81%97%ef%bd%93%ef%bd%85%ef%bd%98-%e6%b2%b3%e9%9f%b3%e3%81%8f%e3%82%8b/100%Daily2018-03-23 13:44
https://www.jpvrporn.com/2018/03/22/exvr-117-%e3%80%90%e5%8c%a0%e3%80%91%e4%ba%ba%e6%b0%97%ef%bd%81%ef%bd%96%e5%a5%b3%e5%84%aa%e3%81%8c%e5%9c%a8%e5%b8%ad%e3%81%99%e3%82%8b-%e3%81%93%e3%81%a3%e3%81%9d%e3%82%8a%e3%83%8a%e3%83%9e-2/100%Daily2018-03-22 16:14
https://www.jpvrporn.com/2018/03/22/kmvr-369-kvr1803-22-%e3%80%90vr%e3%80%91sex%e3%81%8c%e4%b8%8a%e6%89%8b%e3%81%99%e3%81%8e%e3%82%8b%e5%a4%a9%e7%84%b6%e7%be%8e%e5%b0%91%e5%a5%b3%e3%81%a8%e3%81%ae%e4%b8%80%e5%a4%9c%ef%bc%81-%e6%bd%a4-2/100%Daily2018-03-22 16:11
https://www.jpvrporn.com/2018/03/22/kmvr-367-kvr1803-16%e3%80%90vr%e3%80%91%e3%83%97%e3%83%aa%e3%83%83%e3%81%a8%e5%8f%af%e6%84%9b%e3%81%84%e6%a1%83%e5%b0%bb%e5%a5%b3%e5%ad%90%e6%a0%a1%e7%94%9f%e3%81%82%e3%82%84%e3%81%a8%e3%82%a8-3/100%Daily2018-03-22 16:06
https://www.jpvrporn.com/2018/03/22/3dsvr-234-%e3%80%90vr%e3%80%91sodstar%e4%b8%89%e7%94%b0%e6%9d%8f%e3%81%a8%e3%82%a4%e3%83%81%e3%83%a3%e3%82%89%e3%81%b6%e3%83%aa%e3%82%a2%e3%83%absex-2/100%Daily2018-04-05 10:21
https://www.jpvrporn.com/2018/03/22/3dsvr-233-%e3%80%90vr%e3%80%91%e7%9c%8b%e8%ad%b7%e5%b8%ab%e3%81%ae%e9%80%8f%e3%81%91%e3%83%91%e3%83%b3%e3%81%af%e8%aa%98%e6%83%91%e3%81%ae%e3%81%97%e3%82%8b%e3%81%97%ef%bc%81%ef%bc%9f-2/100%Daily2018-03-22 16:02
https://www.jpvrporn.com/2018/03/22/3dsvr-224-%e3%80%90vr%e3%80%91%e3%82%ad%e3%82%b9%e5%a4%a7%e5%a5%bd%e3%81%8d%e5%bd%bc%e5%a5%b3%ef%bc%81%e6%9c%80%e5%88%9d%e3%81%8b%e3%82%89%e6%9c%80%e5%be%8c%e3%81%be%e3%81%a7%e3%82%ad%e3%82%b9-2/100%Daily2018-03-22 16:00
https://www.jpvrporn.com/2018/03/22/3dsvr-190-%e3%80%90vr%e3%80%91%e7%be%8e%e5%b7%a8%e4%b9%b3%e3%81%ae%e5%bd%bc%e5%a5%b3%e3%82%92%e8%87%aa%e6%85%a2%e3%81%99%e3%82%8b%e3%82%88%e3%81%86%e3%81%ab%e5%b8%b8%e3%81%ab%e3%81%8a%e3%81%a3-2/100%Daily2018-03-22 15:59
https://www.jpvrporn.com/2018/03/22/kandy-kors-tastes-like-candy-18vr-march-20-2018/100%Daily2018-03-22 15:00
https://www.jpvrporn.com/2018/03/22/scyley-jam-a-blowjob-for-a-sneaky-blackmailer-tmwvrnet-teenmegaworld-march-20-2018/100%Daily2018-03-22 14:57
https://www.jpvrporn.com/2018/03/22/mila-milan-czech-vr-200-military-milf-czechvr-mar-19-2018/100%Daily2018-03-22 14:55
https://www.jpvrporn.com/2018/03/22/bridgette-b-bridgette-b-makes-you-vr-cuckold-virtualrealitybang-2017-01/100%Daily2018-03-22 15:00
https://www.jpvrporn.com/2018/03/22/samantha-hayes-house-warming-wankzvr-20-march-2018/100%Daily2018-03-22 14:43
https://www.jpvrporn.com/2018/03/22/anya-olsen-bridgette-b-brunette-and-blonde-are-playing-sexball-game-virtualrealitybang-2016-12/100%Daily2018-03-22 14:41
https://www.jpvrporn.com/2018/03/22/cherry-kiss-blowjob-by-your-gfs-sexy-sister-virtualrealitybang-2017-05/100%Daily2018-03-22 14:38
https://www.jpvrporn.com/2018/03/22/cayla-lyons-call-pizza-for-vr-fuck-virtualrealitybang-2017-03/100%Daily2018-03-22 14:35
https://www.jpvrporn.com/2018/03/22/xomavr-012-%e3%80%90vr%e3%80%91part-4-%e3%83%89%e3%82%a5%e3%82%8a%e3%81%a1%e3%82%83%e3%82%93/100%Daily2018-03-22 22:07
https://www.jpvrporn.com/2018/03/22/avvr-320-%e3%80%90vr%e3%80%91%e6%94%be%e8%aa%b2%e5%be%8cjk%e3%81%a8%e4%b8%ad%e5%87%ba%e3%81%97%e3%82%bb%e3%83%83%e3%82%af%ef%bc%88%ce%b5%ef%bc%89%e3%83%81%e3%83%a5%e3%83%83%e3%83%81-2/100%Daily2018-04-04 19:40
https://www.jpvrporn.com/2018/03/22/exvr-062-%e3%80%90vr%e3%80%91%e4%b8%ad%e5%87%ba%e3%81%97%e3%81%a7%e5%a5%91%e7%b4%84%e6%88%90%e7%ab%8b%ef%bc%81%e7%be%8e%e4%ba%ba%e3%82%bb%e3%83%bc%e3%83%ab%e3%82%b9%e3%83%ac%e3%83%87%e3%82%a3%e3%81%ae/100%Daily2018-03-22 12:23
https://www.jpvrporn.com/2018/03/22/vovs-050-%e3%80%90vr%e3%80%91%e5%94%af%e5%b7%9d%e5%b8%8c-%e6%bf%80%e3%83%8f%e3%83%a1%e7%94%9f%e4%b8%ad%e5%87%ba%e3%81%97%ef%bc%81%e7%be%8e%e3%83%9e%e3%83%b3%e3%81%ab%e3%83%96%e3%83%81%e8%be%bc/100%Daily2018-03-22 12:23
https://www.jpvrporn.com/2018/03/22/20069/100%Daily2018-03-22 12:23
https://www.jpvrporn.com/2018/03/22/katana-learn-with-katana-voyeur-realitylovers-2018-03-21/100%Daily2018-03-22 11:24
https://www.jpvrporn.com/2018/03/22/katana-learn-with-katana-pov-realitylovers-2018-03-21/100%Daily2018-03-22 11:22
https://www.jpvrporn.com/2018/03/22/jvrporn-100098-2018-03-22-hitomi-modoka-female-salesman-try-on-stockings-for-your-wife-uncensored/100%Daily2018-03-22 12:22
https://www.jpvrporn.com/2018/03/21/vovs-227-%e3%80%90vr%e3%80%91%e9%95%b7%e5%b0%ba%e3%83%bb%e9%ab%98%e7%94%bb%e8%b3%aavr-%e9%b6%b4%e7%94%b0%e3%81%8b%e3%81%aa-%e7%94%9f%e4%b8%ad%e5%87%ba%e3%81%97-%e8%aa%bf%e6%95%99%e6%b8%88%e3%83%89m/100%Daily2018-03-22 12:23
https://www.jpvrporn.com/2018/03/21/vorm-025-%e3%80%90vr%e3%80%91%e9%95%b7%e5%b0%ba100%e5%88%86-%e7%be%8e%e5%b0%91%e5%a5%b3best-%e5%b0%8f%e6%82%aa%e9%ad%94%e7%be%8e%e5%b0%91%e5%a5%b3%e3%81%ae%e8%aa%98%e6%83%91/100%Daily2018-03-22 12:23
https://www.jpvrporn.com/2018/03/21/oycvr-006-%e3%80%90vr%e3%80%91vr%e9%95%b7%e5%b0%ba-%e5%bd%93%e7%84%b6%e3%80%81%e5%8b%9d%e6%89%8b%e3%81%abav%e5%8c%96%ef%bc%81%e3%82%a4%e3%82%b1%e3%83%a1%e3%83%b3%e3%81%ae%e5%8f%8b%e9%81%94%e3%81%8c/100%Daily2018-03-23 17:18
https://www.jpvrporn.com/2018/03/21/crvr-089-%e3%80%90%e5%8c%a0%e3%80%91%e6%98%9f%e5%a5%88%e3%81%82%e3%81%84-%e3%82%ab%e3%83%8e%e3%82%b8%e3%83%a7%e3%81%8c%e3%81%82%e3%81%ae%e3%82%bb%e3%83%bc%e3%82%bf%e3%83%bc%e3%81%ab%e7%9d%80%e6%9b%bf/100%Daily2018-03-22 12:23
https://www.jpvrporn.com/2018/03/21/wow-002-%e3%80%90vr%e3%80%91%e5%a5%b3%e5%ad%90%e6%a0%a1%e7%94%9f%e3%83%90%e3%83%bc%e3%83%81%e3%83%a3%e3%83%ab%e3%83%98%e3%83%ab%e3%82%b9%e6%82%b6%e7%b5%b6%e5%af%b8%e6%ad%a2%e3%82%81/100%Daily2018-03-22 12:23
https://www.jpvrporn.com/2018/03/21/osl018-%e5%a5%b3%e5%ad%90%e9%ab%98%e7%94%9f%e3%81%ae%e6%97%a5%e5%b8%b8%ef%bc%81%ef%bc%9f%e3%80%80%e3%80%80%ef%bd%8d%e5%b0%82%e7%94%a8%e3%80%82%e8%87%aa%e5%88%86%e3%81%ae%e3%82%aa%e3%83%8a%e3%83%8b/100%Daily2018-03-22 12:23
https://www.jpvrporn.com/2018/03/21/19927/100%Daily2018-03-22 12:23
https://www.jpvrporn.com/2018/03/21/mivr-011-%e3%80%90vr%e3%80%91%e3%83%8f%e3%82%a4%e3%83%ac%e3%82%b0%e3%83%ac%e3%82%aa%e3%82%bf%e3%83%bc%e3%83%89%e3%81%8a%e4%b8%8b%e5%8a%a3%e7%97%b4%e5%a5%b3/100%Daily2018-03-22 12:23
https://www.jpvrporn.com/2018/03/21/kmvr-029-%e3%80%90vr%e3%80%91%e9%ba%bb%e9%87%8c%e6%a2%a8%e5%a4%8f%e3%81%a8%e4%b8%ad%e5%87%ba%e3%81%97sex%ef%bc%81%ef%bc%81-vr%e3%81%a0%e3%81%8b%e3%82%89%e6%9c%ac%e5%bd%93%e3%81%ab%e3%81%97%e3%81%a6/100%Daily2018-03-22 12:23
https://www.jpvrporn.com/2018/03/21/whitney-wright-love-letter-badoinkvr-march-15-2018/100%Daily2018-03-21 17:38
https://www.jpvrporn.com/2018/03/21/cassie-fire-pleasuring-casie-sexbabesvr-mar-15-2018/100%Daily2018-03-21 17:33
https://www.jpvrporn.com/2018/03/21/tiffany-brookes-number-one-fuck-toy-milfvr-15-mar-2018/100%Daily2018-03-21 17:31
https://www.jpvrporn.com/2018/03/21/nikky-dream-valentina-bianco-czech-vr-fetish-117-lesbian-anal-fisting-czechvrfetish-mar-14-2018/100%Daily2018-03-21 17:26
https://www.jpvrporn.com/2018/03/21/athena-palomino-bambino-a-tale-of-seduction-naughtyamerica-mar-14-2018/100%Daily2018-03-21 17:23
https://www.jpvrporn.com/2018/03/21/zazie-skymm-ninel-mojado-nesty-four-leaf-foursome-pov-realitylovers-2018-03-14/100%Daily2018-03-21 17:20
https://www.jpvrporn.com/2018/03/21/zazie-skymm-ninel-mojado-nesty-four-leaf-foursome-voyeur-realitylovers-2018-03-14/100%Daily2018-03-21 17:18
https://www.jpvrporn.com/2018/03/21/rachel-rampage-strip-for-me-burningangelvr-february-24-2017/100%Daily2018-03-21 17:14
https://www.jpvrporn.com/2018/03/21/joanna-angel-mia-madison-sexercise-burningangelvr-january-16-2017/100%Daily2018-03-21 17:12
https://www.jpvrporn.com/2018/03/21/misha-cross-sex-and-feet-sexbabesvr-feb-26-2018/100%Daily2018-03-21 17:06
https://www.jpvrporn.com/2018/03/21/alyce-anderson-emily-willis-hadley-viscara-rion-king-after-school-naughtyamerica-mar-2-2018/100%Daily2018-03-21 17:04
https://www.jpvrporn.com/2018/03/21/chloe-cherry-valerie-white-zoe-parker-bambino-after-school-naughtyamerica-feb-25-2018/100%Daily2018-03-21 16:58
https://www.jpvrporn.com/2018/03/21/kmvr-372-kvr1803-18-%e3%80%90vr%e3%80%91%e5%a5%b3%e5%ad%90%e6%a0%a1%e7%94%9f%e3%82%a4%e3%83%a1%e3%82%af%e3%83%a9%e3%81%a7%e3%82%ad%e3%82%b9%e3%81%97%e3%81%be%e3%81%8f%e3%82%8a%e3%82%b3%e3%83%bc/100%Daily2018-03-22 12:23
https://www.jpvrporn.com/2018/03/21/mxvr-001-%e3%80%90vr%e3%80%91%e5%a4%a2%e3%81%ae%e3%82%88%e3%81%86%e3%81%aa%e7%94%98%e3%81%84%e7%94%9f%e6%b4%bb%e3%80%81%e7%94%b1%e6%84%9b%e3%81%a8%e3%82%a4%e3%83%81%e3%83%a3%e3%82%a4%e3%83%81%e3%83%a3/100%Daily2018-03-22 12:23
https://www.jpvrporn.com/2018/03/20/ovr-001-%e3%80%90vr%e3%80%91%e8%a1%9d%e6%92%83vr%ef%bc%81%e3%83%9f%e3%82%af%e3%81%a1%e3%82%83%e3%82%93%e3%81%ae%e8%bf%ab%e3%82%8a%e3%81%8f%e3%82%8b%e3%81%86%e3%82%93%e3%81%93-warning-this-vid-has/100%Daily2018-03-22 12:23
https://www.jpvrporn.com/2018/03/20/cafr-178-%e3%80%90vr%e3%80%91%e3%82%80%e3%81%a3%e3%81%a1%e3%82%8a%e5%b7%a8%e4%b9%b3%e5%ab%81%e3%82%92%e9%98%bf%e4%bf%ae%e7%be%85%e8%b2%ac%e3%82%81-%e5%8a%a0%e8%97%a4%e3%81%82%e3%82%84%e3%81%ae/100%Daily2018-03-22 12:23
https://www.jpvrporn.com/2018/03/20/wpvr-101-%e3%80%90vr%e3%80%91%e3%81%8b%e3%82%93%e3%81%8d%e3%82%93%e3%80%82-%e9%ba%bb%e9%87%8c%e6%a2%a8%e5%a4%8f/100%Daily2018-03-22 16:21
https://www.jpvrporn.com/2018/03/20/jvrporn-100097-2018-03-18-hanyu-arisa-special-nurse-special-healing/100%Daily2018-03-22 12:23
https://www.jpvrporn.com/2018/03/20/kira-noir-a-dishonest-mistake-badoinkvr-march-19-2018/100%Daily2018-03-20 18:17
https://www.jpvrporn.com/2018/03/20/nikky-dream-blonde-slut-is-testing-out-her-new-dildos-virtualrealitybang-2016-11/100%Daily2018-03-20 18:14
https://www.jpvrporn.com/2018/03/20/karol-lilien-blonde-mature-woman-fingering-virtualrealitybang-2017-01/100%Daily2018-03-20 18:12
https://www.jpvrporn.com/2018/03/20/anissa-kate-blowjob-before-uber-comes-virtualrealitybang-2017-07/100%Daily2018-03-20 18:09
https://www.jpvrporn.com/2018/03/20/nina-elle-blonde-milf-is-making-a-fuck-deal-virtualrealitybang-2016-11/100%Daily2018-03-20 18:07
https://www.jpvrporn.com/2018/03/20/nikky-dream-blonde-nikky-dream-creampie-virtualrealitybang-2016-12/100%Daily2018-03-20 18:05
https://www.jpvrporn.com/2018/03/20/aubrey-black-farrah-dahl-vanessa-cage-bambino-after-school-naughtyamerica-mar-19-2018/100%Daily2018-03-20 18:02
https://www.jpvrporn.com/2018/03/20/lexi-layo-sensual-pooldance-sexbabesvr-mar-19-2018/100%Daily2018-03-20 18:00
https://www.jpvrporn.com/2018/03/20/3dsvr-232-%e3%80%90vr%e3%80%91%e8%80%b3%e5%85%83%e3%81%a7%e5%9b%81%e3%81%8fw%e3%83%90%e3%82%a4%e3%83%8e%e3%83%bc%e3%83%a9%e3%83%ab%e6%b7%ab%e8%aa%9e%e8%b2%ac%e3%82%81%e5%94%be%e3%81%9f%e3%82%89/100%Daily2018-03-22 12:23
https://www.jpvrporn.com/2018/03/20/3dsvr-230-%e3%80%90vr%e3%80%91%e5%85%a8%e8%ba%ab%e6%80%a7%e6%84%9f%e5%b8%af%ef%bc%81%e8%b6%85%e3%83%93%e3%83%b3%e3%82%ab%e3%83%b3%e5%b0%91%e5%a5%b3%e3%82%92%e3%82%aa%e3%82%a4%e3%83%ab%e3%83%9e/100%Daily2018-03-22 12:23
https://www.jpvrporn.com/2018/03/20/3dsvr-228-%e3%80%90vr%e3%80%91%e7%94%b7%e3%81%a0%e3%81%91%e3%81%8c%e5%81%9c%e6%ad%a2%e3%81%99%e3%82%8b%e3%82%a2%e3%83%97%e3%83%aa%e3%81%a7%e5%8b%95%e3%81%91%e3%81%aa%e3%81%8f%e3%81%aa%e3%81%a3/100%Daily2018-03-22 12:23
https://www.jpvrporn.com/2018/03/20/osl023-%e5%a5%b3%e5%ad%90%e9%ab%98%e7%94%9f%e3%81%ae%e6%97%a5%e5%b8%b8%ef%bc%81%ef%bc%9f%e3%80%80%e3%80%80%ef%bd%8d%e5%b0%82%e7%94%a8%e3%80%82%e3%83%96%e3%83%ab%e3%83%9e%e5%a7%bf%e3%81%a7%e8%87%aa/100%Daily2018-03-22 12:23
https://www.jpvrporn.com/2018/03/20/tkrm009-%e9%9a%a3%e3%81%ae%e7%97%85%e5%ae%a4%e3%81%8b%e3%82%89%e7%aa%81%e7%84%b6%e6%9d%a5%e3%81%9f%e3%81%bf%e3%81%ae%e3%82%8a%e3%81%a1%e3%82%83%e3%82%93%e3%81%a8%e8%b6%85%e6%95%8f%e6%84%9fsex/100%Daily2018-04-16 17:13
https://www.jpvrporn.com/2018/03/20/osl048-050-%e4%b8%80%e5%a4%ab%e5%a4%9a%e5%a6%bb%e5%88%b6%e3%81%ae%e6%9c%9d%e3%80%80%ef%bc%94%e4%ba%ba%e3%81%ae%e5%a6%bb%e3%81%a8%e6%ac%a1%e3%80%85%e3%81%a8%e3%82%bb%e3%83%83%e3%82%af%e3%82%b9/100%Daily2018-03-22 12:23
https://www.jpvrporn.com/2018/03/20/avvr-300-%e3%80%90vr%e3%80%91%e6%96%b0%e4%ba%ba%e5%a5%b3%e6%95%99%e5%b8%ab%e3%81%9f%e3%81%a1%e3%81%ae%e3%81%8a%e6%88%af%e3%82%8c%e4%b8%ad%e5%87%ba%e3%81%97sex-%e5%a7%ab%e5%b7%9d%e3%82%86%e3%81%86/100%Daily2018-03-22 12:23
https://www.jpvrporn.com/2018/03/20/kvr1803-17-takumi-%e3%80%90%e5%8c%a0%e3%80%91%e5%a5%b3%e5%ad%90%e5%8a%9b%e3%81%ae%e9%ab%98%e3%81%84%e5%83%95%e3%81%8c%e7%94%b7%e3%81%a3%e3%81%bd%e3%81%84%e3%82%8b%e3%83%bc%e3%81%a1%e3%82%83%e3%82%93-2/100%Daily2018-03-20 16:46
https://www.jpvrporn.com/2018/03/20/kvr1803-17-takumi-%e3%80%90%e5%8c%a0%e3%80%91%e5%a5%b3%e5%ad%90%e5%8a%9b%e3%81%ae%e9%ab%98%e3%81%84%e5%83%95%e3%81%8c%e7%94%b7%e3%81%a3%e3%81%bd%e3%81%84%e3%82%8b%e3%83%bc%e3%81%a1%e3%82%83%e3%82%93/100%Daily2018-03-20 16:45
https://www.jpvrporn.com/2018/03/20/kmvr-356-%e3%81%9a%e3%83%bc%e3%81%a3%e3%81%a8%e8%a6%8b%e3%81%a4%e3%82%81%e3%81%82%e3%81%84%e3%81%aa%e3%81%8c%e3%82%89%e3%80%8c%e5%a5%bd%e3%81%8d%e3%81%a0%e3%82%88%ef%bc%81%e3%81%a8%e3%82%8d%e3%81%91/100%Daily2018-03-22 12:25
https://www.jpvrporn.com/2018/03/19/western-vr-vids-are-shared-from-now-on/100%Daily2018-03-26 12:03
https://www.jpvrporn.com/2018/03/19/cayla-lyons-blonde-babysitter-in-high-heels-masturbating-virtualrealitybang-2017-01/100%Daily2018-03-19 21:58
https://www.jpvrporn.com/2018/03/19/mia-malkova-blonde-girl-fucked-at-the-job-interview-virtualrealitybang-2016-11/100%Daily2018-03-19 21:56
https://www.jpvrporn.com/2018/03/19/ricky-johnson-maddy-oreilly-oil-me-up-and-worship-my-ass-vrhush-mar-18-2018/100%Daily2018-03-19 21:52
https://www.jpvrporn.com/2018/03/19/karol-lilien-vinna-reed-blonde-lesbian-pornstars-having-sex-virtualrealitybang-2016-12/100%Daily2018-03-19 21:51
https://www.jpvrporn.com/2018/03/19/lucy-shine-blonde-lucy-shines-on-screen-in-black-stockings-while-riding-your-cock-virtualrealitybang-2016-12/100%Daily2018-03-19 21:44
https://www.jpvrporn.com/2018/03/19/endza-endza-and-sierra-cirque-sierra-cirque-endza-gives-sierra-a-serious-orgasm-yanksvr-march-17-2018/100%Daily2018-03-19 21:42
https://www.jpvrporn.com/2018/03/19/abella-danger-mandy-muse-dylan-snow-thirsty-naughtyamerica-mar-16-2018/100%Daily2018-03-19 21:40
https://www.jpvrporn.com/2018/03/19/marley-brinx-home-orifice-wankzvr-16-march-2018/100%Daily2018-03-19 21:35
https://www.jpvrporn.com/2018/03/19/inna-innaki-big-tits-brunette-in-vr-porn-virtualrealitybang-2017-08/100%Daily2018-03-19 21:33
https://www.jpvrporn.com/2018/03/19/anissa-kate-apolonia-lapiedra-360-porn-public-threesome-with-waitress-virtualrealitybang-2017-06/100%Daily2018-03-20 21:27
https://www.jpvrporn.com/2018/03/19/billie-star-lola-myluv-natalie-cherie-czech-vr-199-st-patricks-awesome-foursome-czechvr-mar-16-2018/100%Daily2018-03-19 21:28
https://www.jpvrporn.com/2018/03/19/mia-li-asian-sex-competition-virtualrealitybang-2017-04/100%Daily2018-03-19 21:22
https://www.jpvrporn.com/2018/03/19/veronica-clark-too-big-for-her-ass-virtualtaboo-march-17-2018/100%Daily2018-03-19 21:19
https://www.jpvrporn.com/2018/03/19/carmel-anderson-misha-cross-nick-ross-be-my-clover-virtualrealporn-16-mar-2018/100%Daily2018-04-10 21:29
https://www.jpvrporn.com/2018/03/19/alexxa-vice-tank-girl-a-xxx-parody-vrcosplayx-march-16-2018/100%Daily2018-03-19 21:03
https://www.jpvrporn.com/2018/03/19/nikky-dream-karol-lilien-untitled-ddfnetwork-march-17-2018/100%Daily2018-03-19 21:03
https://www.jpvrporn.com/2018/03/19/rebecca-volpetti-banging-teen-at-the-swimming-pool-virtualrealitybang-2018-01/100%Daily2018-03-19 21:04
https://www.jpvrporn.com/2018/03/19/jillian-janson-another-day-in-paradise-virtualrealitybang-2018-03/100%Daily2018-03-19 20:50
https://www.jpvrporn.com/2018/03/19/violette-pink-amateur-vr-porn-virtualrealitybang-2016-11/100%Daily2018-03-19 20:42
https://www.jpvrporn.com/2018/03/19/brooklyn-chase-honey-pot-vrbangers-16-march-2018/100%Daily2018-04-10 21:24
https://www.jpvrporn.com/2018/03/19/vorm-028-%e3%80%90vr%e3%80%91%e9%95%b7%e5%b0%ba115%e5%88%86-%e7%94%b7%e3%81%ae%e5%a4%a2%e3%81%8c%e5%ae%9f%e7%8f%be%e3%81%99%e3%82%8b%ef%bc%81%e4%bf%9d%e5%81%a5%e5%ae%a4%e3%81%a7%e3%81%82%e3%82%93/100%Daily2018-03-19 18:21
https://www.jpvrporn.com/2018/03/19/mivr-031-%e3%80%90%e5%8c%a0%e3%80%91%e3%81%9f%e3%81%a0%e3%81%a7%e3%81%95%e3%81%88%e3%83%a0%e3%83%83%e3%83%81%e3%83%aa%e5%b7%a8%e4%b9%b3%e3%81%aa%e3%81%ae%e3%81%ab%e4%bd%93%e3%81%8c%e5%bc%b7%e8%aa%bf/100%Daily2018-03-22 12:25
https://www.jpvrporn.com/2018/03/19/kolvr-021-%e3%80%90vr%e3%80%91%e9%95%b7%e5%b0%bavr-%e3%83%ad%e3%83%bc%e3%82%b7%e3%83%a7%e3%83%b3%e3%81%ac%e3%82%8b%e3%81%ac%e3%82%8b%e3%83%a1%e3%82%a4%e3%83%89%e3%83%87%e3%83%aa%e3%83%90%e3%83%aa/100%Daily2018-03-22 12:25
https://www.jpvrporn.com/2018/03/19/kolvr-020-%e3%80%90vr%e3%80%91%e7%88%86%e4%b9%b3%e3%83%91%e3%82%a4%e3%82%ba%e3%83%aa%e3%83%8f%e3%83%bc%e3%83%ac%e3%83%a0%e3%82%a8%e3%82%b9%e3%83%86/100%Daily2018-03-22 12:25
https://www.jpvrporn.com/2018/03/19/kolvr-019-%e3%80%90vr%e3%80%91%e9%9c%b2%e5%a4%a9%e9%a2%a8%e5%91%82-%e3%81%8a%e3%82%82%e3%81%a6%e3%81%aa%e3%81%97%e3%81%aew%e6%89%8b%e3%82%b3%e3%82%ad%e3%83%95%e3%82%a7%e3%83%a9/100%Daily2018-03-22 12:25
https://www.jpvrporn.com/2018/03/19/kolvr-018-%e3%80%90vr%e3%80%91%e9%95%b7%e5%b0%bavr-%e5%b7%a8%e4%b9%b3%e3%81%aa%e5%bd%bc%e5%a5%b3%e3%81%ae%e3%81%8a%e5%a7%89%e3%81%95%e3%82%93%e3%81%af%e8%aa%98%e6%83%91%e5%a4%a7%e5%a5%bd%e3%81%8d/100%Daily2018-03-22 12:25
https://www.jpvrporn.com/2018/03/19/kolvr-017-%e3%80%90vr%e3%80%91%e9%95%b7%e5%b0%bavr-%e9%80%863p-%e7%94%9f%e4%b8%ad%e5%87%ba%e3%81%97sex%ef%bc%81%ef%bc%81%e3%83%89%e8%bf%ab%e5%8a%9b%ef%bc%81%e7%88%86%e4%b9%b3%e3%83%8f%e3%83%bc/100%Daily2018-03-22 12:25
https://www.jpvrporn.com/2018/03/19/kolvr-012-%e3%80%90vr%e3%80%91%e9%95%b7%e5%b0%bavr-%e6%9f%90%e5%9b%bd%e3%81%ae%e2%97%8b%e6%a7%98%e3%81%ab%e3%81%aa%e3%81%a3%e3%81%9f%e5%83%95%e3%80%82%e5%a5%b4%e9%9a%b7%e5%a5%b3%e3%81%ab%e6%8b%b7/100%Daily2018-03-22 12:25
https://www.jpvrporn.com/2018/03/19/hunvr-008-%e3%80%90vr%e3%80%91vr%e9%95%b7%e5%b0%ba-%e3%80%8c%e3%81%a1%e3%82%87%e3%81%a3%e3%81%a8%e3%83%80%e3%83%a1%e3%81%a0%e3%81%a3%e3%81%a6%ef%bc%81%e6%8c%bf%e3%81%a3%e3%81%a1%e3%82%83%e3%81%86/100%Daily2018-03-22 12:25
https://www.jpvrporn.com/2018/03/19/sivr-017-%e3%80%90vr%e3%80%91%e6%96%b0%e5%9f%ba%e6%ba%96-vr-%e9%ab%98%e7%94%bb%e8%b3%aa%ef%bc%81100%ef%bc%85%e6%af%94%e7%8e%87%ef%bc%81%e9%95%b7%e5%b0%ba%ef%bc%81%e5%9b%bd%e6%b0%91%e7%9a%84%e3%82%a2/100%Daily2018-03-22 12:25
https://www.jpvrporn.com/2018/03/18/cafr-177-%e3%80%90vr%e3%80%91%e4%bf%ba%e5%b0%82%e7%94%a8%ef%bc%81%e6%9c%80%e5%89%8d%e7%b7%9a%e3%81%a7%e8%a6%8b%e3%81%9b%e4%bb%98%e3%81%91%e3%82%89%e3%82%8c%e3%82%8b%e8%b6%85%e7%97%b4%e5%a5%b3%e4%bd%93/100%Daily2018-03-22 12:25
https://www.jpvrporn.com/2018/03/18/gunm-004-%e3%80%90vr%e3%80%91vr-%e9%95%b7%e5%b0%ba-%e3%82%b9%e3%83%88%e3%83%aa%e3%83%83%e3%83%97/100%Daily2018-03-22 12:25
https://www.jpvrporn.com/2018/03/18/sqvr-007-%e3%80%90vr%e3%80%91%e3%82%86%e3%81%86%e3%81%93%e3%81%95%e3%82%93%ef%bc%8821%e6%ad%b3%ef%bc%89%e5%a4%a7%e5%ad%a6%e7%94%9f-%e4%b8%89%e8%bb%92%e8%8c%b6%e5%b1%8b%e5%9c%a8%e4%bd%8f-153cm-b87-w59/100%Daily2018-03-22 12:25
https://www.jpvrporn.com/2018/03/18/crvr-091-%e3%80%90%e5%8c%a0%e3%80%91%e5%80%89%e5%a4%9a%e3%81%be%e3%81%8a-%e7%9c%bc%e9%8f%a1x%e7%ab%b6%e6%b3%b3%e6%b0%b4%e7%9d%80x%e3%81%8f%e3%81%b3%e3%82%8c%e3%83%9c%e3%82%a4%e3%83%b3-vr/100%Daily2018-03-22 12:25
https://www.jpvrporn.com/2018/03/18/bzvr-007-%e3%80%90vr%e3%80%91%e9%95%b7%e5%b0%bavr-%e3%82%a8%e3%83%ad%e3%81%99%e3%81%8e%e3%82%8b%e3%82%bb%e3%83%83%e3%82%af%e3%82%b9%e3%82%a4%e3%83%b3%e3%82%b9%e3%83%88%e3%83%a9%e3%82%af%e3%82%bf/100%Daily2018-04-02 15:07
https://www.jpvrporn.com/2018/03/18/extk207-212-3k-2017-12-10-tachibana-may-%e6%a9%98%e3%83%a1%e3%82%a2%e3%83%aa%e3%83%bc-%e3%83%a1%e3%82%a2%e3%83%aa%e3%83%bc%e5%85%88%e7%94%9f%e3%81%ae%e3%82%a8%e3%83%83%e3%83%81%e3%81%aa%e5%ae%b6-2/100%Daily2018-03-18 20:56
https://www.jpvrporn.com/2018/03/18/osl017-%e5%a5%b3%e5%ad%90%e9%ab%98%e7%94%9f%e3%81%ae%e6%97%a5%e5%b8%b8%ef%bc%81%ef%bc%9f%e3%80%80%e3%80%80%e3%81%bf%e3%82%93%e3%81%aa%e3%81%8c%e8%87%aa%e5%88%86%e3%81%ae%e3%82%aa%e3%83%8a%e3%83%8b/100%Daily2018-03-22 12:25
https://www.jpvrporn.com/2018/03/18/afes212-216-%e3%81%8a%e9%a2%a8%e5%91%82%e5%a0%b4%e3%81%a7%e8%89%b2%e3%82%93%e3%81%aa%e3%81%93%e3%81%a8%e3%81%97%e3%81%a6%e3%81%bf%e3%81%be%e3%81%97%e3%81%9f/100%Daily2018-03-22 12:25
https://www.jpvrporn.com/2018/03/18/avopvr-047-%e3%80%90vr%e3%80%91vr%e3%81%a1%e3%82%93%e3%82%b7%e3%83%a3%e3%83%96%e5%a4%a7%e5%a5%bd%e3%81%8d%e5%a5%b3%e3%82%b9%e3%83%9a%e3%82%b7%e3%83%a3%e3%83%ab-%e7%a5%9e%e7%b4%8d%e8%8a%b1-%e6%9e%a2/100%Daily2018-03-22 12:25
https://www.jpvrporn.com/2018/03/17/kbvr-005-%e3%80%90vr%e3%80%91%e5%ba%a7%e3%81%a3%e3%81%9f%e7%9e%ac%e9%96%93%e3%81%ab%e3%83%a2%e3%83%86%e7%94%b7%e3%81%ab%ef%bc%81%ef%bc%81%e4%b8%80%e7%94%9f%e5%88%86%e8%a4%92%e3%82%81%e3%81%a6%ef%bd%a4/100%Daily2018-03-22 12:25
https://www.jpvrporn.com/2018/03/17/dsvr-015-%e3%80%90vr%e3%80%91%e5%bd%bc%e5%a5%b3%e3%81%ae%e6%b5%ae%e6%b0%97%e3%82%92%e7%9b%ae%e6%92%83%e3%81%97%e3%81%aa%e3%81%8c%e3%82%89%e5%bd%bc%e5%a5%b3%e3%81%ae%e5%a6%b9%e3%81%a8%e6%bf%83%e5%af%86/100%Daily2018-03-22 12:25
https://www.jpvrporn.com/2018/03/17/exvr-112-%e3%81%ad%e3%81%87%e3%81%93%e3%81%a3%e3%81%a1%e6%9d%a5%e3%81%a6%e2%98%86-vr-%e3%83%84%e3%83%b3%e3%83%87%e3%83%ac%e5%a6%b9%e3%81%8c%e3%83%87%e3%83%ac%e3%83%87%e3%83%ac%e5%91%8a%e7%99%bd-2/100%Daily2018-03-22 12:25
https://www.jpvrporn.com/2018/03/17/exvr-112-%e3%81%ad%e3%81%87%e3%81%93%e3%81%a3%e3%81%a1%e6%9d%a5%e3%81%a6%e2%98%86-vr-%e3%83%84%e3%83%b3%e3%83%87%e3%83%ac%e5%a6%b9%e3%81%8c%e3%83%87%e3%83%ac%e3%83%87%e3%83%ac%e5%91%8a%e7%99%bd/100%Daily2018-03-22 12:25
https://www.jpvrporn.com/2018/03/17/setagayavr-001-%ef%bc%88%e5%8c%a0%ef%bc%89%e5%a6%8a%e5%a8%a0%e3%82%a6%e3%82%a7%e3%83%ab%e3%82%ab%e3%83%a0%e3%81%aa%e3%82%b9%e3%82%b1%e3%83%99%e3%83%8b%e3%83%83%e3%83%88%e3%81%ae%e5%bd%bc%e5%a5%b3-3/100%Daily2018-03-17 16:24
https://www.jpvrporn.com/2018/03/17/kvr1803-6-%e3%80%90%e5%8c%a0%e3%80%91%e5%8f%af%e6%84%9b%e3%81%84%e3%81%8a%e5%b0%bb%e3%81%ab%e3%83%9a%e3%83%b3%e3%83%9a%e3%83%b3%e3%81%8a%e4%bb%95%e7%bd%ae%e3%81%8d%e3%82%bf%e3%82%a4%e3%83%a0-2/100%Daily2018-03-17 16:20
https://www.jpvrporn.com/2018/03/17/exvr-120-%e3%80%90%e5%8c%a0%e3%80%91%e7%b5%82%e9%9b%bb%e9%96%93%e9%9a%9b%e3%81%a7%e3%83%af%e3%83%b3%e3%83%81%e3%83%a3%e3%83%b3%e7%8b%99%e3%81%a3%e3%81%a6%e5%bc%95%e3%81%8d%e3%81%a8%e3%82%81%e3%81%a6-2/100%Daily2018-03-22 12:29
https://www.jpvrporn.com/2018/03/17/exvr-118-%e3%80%90%e5%8c%a0%e3%80%91%e6%b3%a2%e6%9c%a8%e3%81%af%e3%82%8b%e3%81%8b%e3%81%a8%e3%81%8a%e5%ae%b6%e3%83%87%e3%83%bc%e3%83%88%e2%98%86-%e3%82%a4%e3%83%81%e3%83%a3%e3%82%a4%e3%83%81-2-2/100%Daily2018-03-22 12:29
https://www.jpvrporn.com/2018/03/17/exvr-111-%e3%80%90%e5%8c%a0%e3%80%91%e3%81%ad%e3%81%87%e3%81%93%e3%81%a3%e3%81%a1%e6%9d%a5%e3%81%a6%e2%98%86-vr-%e3%81%82%e3%81%93%e3%81%8c%e3%82%8c%e3%81%ae%e6%95%99%e8%82%b2%e5%ae%9f%e7%bf%92-2/100%Daily2018-03-22 12:29
https://www.jpvrporn.com/2018/03/17/exvr-104-%e3%80%90vr%e3%80%91%e5%a5%b3%e5%ad%90%e2%97%8f%e7%94%9f%e3%81%82%e3%81%84%e3%81%a8%e5%8f%aa%e4%bb%8a%e5%90%8c%e6%a3%b2%e4%b8%ad%e2%97%86%e5%88%b6%e6%9c%8d%ef%bc%86%e3%83%96%e3%83%bc-2/100%Daily2018-03-22 12:29
https://www.jpvrporn.com/2018/03/16/vovs-218-%e3%80%90%e9%95%b7%e5%b0%ba%e3%83%bb%e9%ab%98%e7%94%bb%e8%b3%aavr%e3%80%91%e6%8e%a8%e5%b7%9d%e3%82%86%e3%81%86%e3%82%8a-%e7%94%9f%e4%b8%ad%e5%87%ba%e3%81%97-%e3%82%aa%e3%82%a4%e3%83%ab/100%Daily2018-03-22 12:29
https://www.jpvrporn.com/2018/03/16/vorm-023-%e3%80%90vr%e3%80%91%e9%95%b7%e5%b0%ba108%e5%88%86-%e7%97%b4%e5%a5%b3%e5%8c%bb-best-%e3%82%a2%e3%83%8a%e3%82%bf%e3%81%af%e7%a7%81%e3%81%ae%e6%80%a7%e5%87%a6%e7%90%86%e9%81%93%e5%85%b7/100%Daily2018-03-22 12:29
https://www.jpvrporn.com/2018/03/16/ccvr-001-%e3%80%90vr%e3%80%91%e3%83%ad%e3%82%b9%e3%81%a7%e8%a6%8b%e3%81%a4%e3%81%91%e3%81%9f%e9%87%91%e9%ab%aa%e5%b7%a8%e4%b9%b3%e3%82%ae%e3%83%a3%e3%83%ab%e3%81%8c%e6%97%a5%e6%9c%ac%e4%ba%ba%e3%81%ae/100%Daily2018-03-22 12:29
https://www.jpvrporn.com/2018/03/16/3dsvr-234-%e3%80%90vr%e3%80%91sodstar%e4%b8%89%e7%94%b0%e6%9d%8f%e3%81%a8%e3%82%a4%e3%83%81%e3%83%a3%e3%82%89%e3%81%b6%e3%83%aa%e3%82%a2%e3%83%absex/100%Daily2018-03-22 12:29
https://www.jpvrporn.com/2018/03/16/kmvr-369-kvr1803-22-%e3%80%90vr%e3%80%91sex%e3%81%8c%e4%b8%8a%e6%89%8b%e3%81%99%e3%81%8e%e3%82%8b%e5%a4%a9%e7%84%b6%e7%be%8e%e5%b0%91%e5%a5%b3%e3%81%a8%e3%81%ae%e4%b8%80%e5%a4%9c%ef%bc%81-%e6%bd%a4/100%Daily2018-03-22 15:21
https://www.jpvrporn.com/2018/03/16/jvrporn-100096-2018-03-14-hatano-shizuku-pretty-tits-girl-having-masturbation/100%Daily2018-03-16 16:58
https://www.jpvrporn.com/2018/03/16/kmvr-333-kvr1712-31-2017-12-31-mari-rika-sazanami-aya-%e4%bd%90%e3%80%85%e6%b3%a2%e7%b6%be-%e9%ba%bb%e9%87%8c%e6%a2%a8%e5%a4%8f-%e3%83%89%e3%82%ad%e3%83%89%e3%82%ad%e5%88%9d%e3%82%81%e3%81%a6-2-2/100%Daily2018-03-22 12:29
https://www.jpvrporn.com/2018/03/16/wpvr-025-%e3%80%90vr%e3%80%91%e6%9c%ac%e7%95%aa%e7%a6%81%e6%ad%a2%e3%81%ae%e3%82%aa%e3%83%83%e3%83%91%e3%83%96%e3%81%a7%e5%ba%97%e3%81%ab%e3%81%af%e5%86%85%e7%b7%92%e3%81%ae%e3%82%b9%e3%83%ad%e3%83%bc/100%Daily2018-03-22 12:29
https://www.jpvrporn.com/2018/03/16/wpvr-013-%e3%80%90vr%e3%80%91%e4%ba%88%e7%b4%84%e3%81%ae%e5%8f%96%e3%82%8c%e3%81%aa%e3%81%84%e4%ba%ba%e6%b0%97%e3%83%87%e3%83%aa%e3%83%98%e3%83%ab%e5%ac%a2%e3%81%ae%e5%b0%8f%e6%82%aa%e9%ad%94%e5%a5%89/100%Daily2018-03-22 12:29
https://www.jpvrporn.com/2018/03/16/vrat-020-%e3%80%90vr%e3%80%91%e6%b9%af%e4%b8%8a%e3%82%8a%e3%83%9e%e3%83%9e%e3%81%ae%e7%ad%86%e3%81%8a%e3%82%8d%e3%81%97-%e6%a1%9c%e4%ba%95%e9%ba%bb%e4%b9%83/100%Daily2018-03-22 12:29
https://www.jpvrporn.com/2018/03/16/vrtm069-070-%e6%a1%9c%e3%81%a1%e3%81%aa%e3%81%bf%ef%bc%86%e9%87%8c%e7%be%8e%e3%81%be%e3%82%86%e3%81%ae%e3%80%90%e3%83%ac%e3%82%ba%e3%81%a3%e3%81%a1%e3%82%83%e3%81%86%ef%bc%81%ef%bc%9f%e3%80%91/100%Daily2018-03-22 12:29
https://www.jpvrporn.com/2018/03/15/wpvr-097-%e3%80%90vr%e3%80%91%e7%86%b1%e3%81%ae%e3%81%93%e3%82%82%e3%81%a3%e3%81%9f%e8%bb%8a%e5%86%85%e3%81%a7%e5%b9%b4%e4%b8%8b%e7%94%b7%e3%81%ae%e4%bb%96%e4%ba%ba%e6%a3%92%e3%82%92%e3%83%90%e3%83%ac/100%Daily2018-03-26 14:41
https://www.jpvrporn.com/2018/03/15/dsvr-028-%e3%80%90vr%e3%80%91%e3%81%a9%e3%82%a8%e3%83%ad%e8%a8%b3%e3%81%82%e3%82%8a%e7%b4%a0%e4%ba%ba%e5%a6%bb-vr%e3%83%87%e3%83%93%e3%83%a5%e3%83%bc-%e6%b0%b4%e5%b7%9d%e3%81%8b%e3%81%88%e3%81%a7/100%Daily2018-03-22 12:29
https://www.jpvrporn.com/2018/03/15/avopvr-011-%e3%80%90vr%e3%80%91%e9%a1%94%e9%9d%a2%e3%82%b9%e3%83%ac%e3%82%b9%e3%83%ac%e3%83%83%ef%bc%81%e3%83%bbvr%e5%a4%a7%e4%be%bf%e6%89%8b%e3%82%b3%e3%82%ad%e3%81%86%e3%82%93%e3%81%93w%e7%9b%9b/100%Daily2018-03-25 21:52
https://www.jpvrporn.com/2018/03/15/3dsvr-233-%e3%80%90vr%e3%80%91%e7%9c%8b%e8%ad%b7%e5%b8%ab%e3%81%ae%e9%80%8f%e3%81%91%e3%83%91%e3%83%b3%e3%81%af%e8%aa%98%e6%83%91%e3%81%ae%e3%81%97%e3%82%8b%e3%81%97%ef%bc%81%ef%bc%9f/100%Daily2018-03-22 15:05
https://www.jpvrporn.com/2018/03/15/3dsvr-224-%e3%80%90vr%e3%80%91%e3%82%ad%e3%82%b9%e5%a4%a7%e5%a5%bd%e3%81%8d%e5%bd%bc%e5%a5%b3%ef%bc%81%e6%9c%80%e5%88%9d%e3%81%8b%e3%82%89%e6%9c%80%e5%be%8c%e3%81%be%e3%81%a7%e3%82%ad%e3%82%b9/100%Daily2018-03-24 10:51
https://www.jpvrporn.com/2018/03/15/3dsvr-190-%e3%80%90vr%e3%80%91%e7%be%8e%e5%b7%a8%e4%b9%b3%e3%81%ae%e5%bd%bc%e5%a5%b3%e3%82%92%e8%87%aa%e6%85%a2%e3%81%99%e3%82%8b%e3%82%88%e3%81%86%e3%81%ab%e5%b8%b8%e3%81%ab%e3%81%8a%e3%81%a3/100%Daily2018-03-22 12:29
https://www.jpvrporn.com/2018/03/15/kmvr-331-kvr1712-27-2017-12-31-suzuki-mayu-%e9%88%b4%e6%9c%a8%e7%9c%9f%e5%a4%95-%e3%82%a4%e3%83%81%e3%83%a3%e3%81%a4%e3%81%8d%e3%83%87%e3%83%aa%e3%83%98%e3%83%ab-%e9%88%b4%e6%9c%a8%e7%9c%9f-2-2/100%Daily2018-04-05 10:49
https://www.jpvrporn.com/2018/03/15/bmvr-020-%e3%80%90vr%e3%80%91%e4%bb%8a%e5%ae%ae%e3%81%84%e3%81%9a%e3%81%bf%e3%81%a1%e3%82%83%e3%82%93%e3%81%a8%e3%82%a4%e3%83%81%e3%83%a3%e3%82%a4%e3%83%81%e3%83%a3%e4%b8%ad%e5%87%ba%e3%81%97sex/100%Daily2018-03-22 12:29
https://www.jpvrporn.com/2018/03/15/vrtm-046-%e3%81%8a%e7%b5%b5%e3%81%8b%e3%81%8d%e4%b8%ad%e3%81%ab%e8%a6%8b%e3%81%88%e3%81%a1%e3%82%83%e3%81%86%e8%87%aa%e7%84%b6%e3%83%91%e3%83%b3%e3%83%81%e3%83%a9/100%Daily2018-03-22 12:29
https://www.jpvrporn.com/2018/03/15/osl010-%e5%83%95%e3%81%a0%e3%81%91%e3%81%ae%e5%88%9d%e7%be%8e%e6%b2%99%e5%b8%8c%e3%80%80%e8%87%aa%e5%ae%85%e3%81%a7%e6%b0%b4%e7%9d%80%e3%83%95%e3%82%a1%e3%83%83%e3%82%b7%e3%83%a7%e3%83%b3%e3%82%b7/100%Daily2018-03-22 12:29
https://www.jpvrporn.com/2018/03/15/osl047-%ef%bc%94%e4%ba%ba%e3%81%ae%e5%a5%b3%e3%81%ae%e5%ad%90%e3%81%ae%e3%82%aa%e3%83%8a%e3%83%8b%e3%83%bc%e9%91%91%e8%b3%9e/100%Daily2018-03-22 12:29
https://www.jpvrporn.com/2018/03/15/osl044-046-%e3%83%81%e3%83%a3%e3%82%a4%e3%83%8a%e3%83%89%e3%83%ac%e3%82%b9%ef%bc%94%e4%ba%ba%e7%b5%84%e3%81%8b%e3%82%89%e3%82%aa%e3%82%a4%e3%83%ab%e3%83%9e%e3%83%83%e3%82%b5%e3%83%bc%e3%82%b8/100%Daily2018-03-22 12:29
https://www.jpvrporn.com/2018/03/14/vovs-216-%e3%80%90%e9%ab%98%e7%94%bb%e8%b3%aavr%e3%80%91%e5%90%9b%e8%89%b2%e8%8a%b1%e9%9f%b3-%e7%94%9f%e4%b8%ad%e5%87%ba%e3%81%97-%e5%87%ba%e4%bc%9a%e3%81%a3%e3%81%a6%e6%95%b0%e7%a7%92%e3%81%a7/100%Daily2018-03-22 12:29
https://www.jpvrporn.com/2018/03/14/vovs-212-%e3%80%90%e9%ab%98%e7%94%bb%e8%b3%aavr%e3%80%91%e6%b2%b3%e5%8d%97%e5%ae%9f%e9%87%8c-%e3%83%95%e3%82%a7%e3%83%a9-%e3%82%af%e3%83%aa%e3%82%af%e3%83%aa%e3%81%ae%e5%a4%a7%e3%81%8d%e3%81%aa/100%Daily2018-03-22 12:29
https://www.jpvrporn.com/2018/03/14/hunvr-004-%e3%80%90vr%e3%80%91vr%e9%95%b7%e5%b0%ba-%e3%83%80%e3%82%a4%e3%83%8b%e3%83%b3%e3%82%b0%e3%83%86%e3%83%bc%e3%83%96%e3%83%ab%e4%b8%8b%e3%81%8b%e3%82%89%e3%81%ae%e6%b5%ae%e6%b0%97%ef%bc%81/100%Daily2018-03-22 12:29
https://www.jpvrporn.com/2018/03/14/18vr-march-13-2018-kristy-black-jureka-del-mar-an-open-invitation/100%Daily2018-03-14 16:55
https://www.jpvrporn.com/2018/03/14/osl042-043-%e4%bc%9a%e7%a4%be%e3%81%ae%e5%81%a5%e5%ba%b7%e8%a8%ba%e6%96%ad%e3%81%a7%e6%ac%a1%e3%80%85%e3%81%a8%e5%8c%bb%e8%80%85%e3%81%ab%e3%81%8a%e3%81%a3%e3%81%b1%e3%81%84%e3%82%92%e6%8f%89%e3%81%be/100%Daily2018-03-22 12:29
https://www.jpvrporn.com/2018/03/14/osl021-%e5%a5%b3%e5%ad%90%e9%ab%98%e7%94%9f%e3%81%ae%e6%97%a5%e5%b8%b8%ef%bc%81%ef%bc%9f%e3%80%80%e3%80%80%e5%ba%8a%e7%9b%ae%e7%b7%9a%ef%bc%81%ef%bc%81%e5%bb%8a%e4%b8%8b%e3%81%ab%e7%9b%ae%e3%81%8c/100%Daily2018-03-22 12:29
https://www.jpvrporn.com/2018/03/14/osl001-%e5%83%95%e3%81%a0%e3%81%91%e3%81%ae%e5%88%9d%e7%be%8e%e6%b2%99%e5%b8%8c%e3%80%80%e6%9c%9d%e3%81%af%e3%81%ad%e3%81%a3%e3%81%a8%e3%82%8a%e3%83%95%e3%82%a7%e3%83%a9%e3%83%81%e3%82%aa%e3%81%a7/100%Daily2018-03-22 12:29
https://www.jpvrporn.com/2018/03/14/osl034-%e3%83%8a%e3%83%bc%e3%82%b94%e4%ba%ba%e3%81%ab%e3%82%bb%e3%83%83%e3%82%af%e3%82%b9%e3%82%92%e3%81%9b%e3%81%8c%e3%81%be%e3%82%8c%e3%82%8b/100%Daily2018-03-22 12:29
https://www.jpvrporn.com/2018/03/14/osl009-%e5%83%95%e3%81%a0%e3%81%91%e3%81%ae%e5%88%9d%e7%be%8e%e6%b2%99%e5%b8%8c%e3%80%80%e5%af%9d%e5%ae%a4%e3%81%a7%e4%b8%8b%e7%9d%80%e5%a7%bf%e3%81%ab/100%Daily2018-03-22 12:29
https://www.jpvrporn.com/2018/03/14/osl007-%e5%83%95%e3%81%a0%e3%81%91%e3%81%ae%e5%88%9d%e7%be%8e%e6%b2%99%e5%b8%8c%e3%80%80%e6%98%bc%e4%b8%8b%e3%81%8c%e3%82%8a%e3%81%ab%e4%bd%95%e5%9b%9e%e3%82%82%e3%82%ad%e3%82%b9/100%Daily2018-03-22 12:29
https://www.jpvrporn.com/2018/03/14/vovs-377-%e9%95%b7%e5%b0%ba40%e5%88%86%e3%83%bb%e9%ab%98%e7%94%bb%e8%b3%aa-%e3%83%a9%e3%83%96%e3%82%a4%e3%83%81%e3%83%a3vr%e5%bd%bc%e5%a5%b3-%e6%bf%80%e3%82%ab%e3%83%af%e6%95%8f%e6%84%9fa%e3%82%ab/100%Daily2018-03-22 12:29
https://www.jpvrporn.com/2018/03/14/vovs-361-%e9%95%b7%e5%b0%ba43%e5%88%86%e3%83%bb%e9%ab%98%e7%94%bb%e8%b3%aa-%e3%83%a4%e3%83%b3%e3%83%87%e3%83%ac%e5%a6%b9%e3%81%a8%e7%94%98%e3%81%84%ef%bc%9f%e7%94%9f%e4%b8%ad%e5%87%ba%e3%81%97/100%Daily2018-03-22 12:29
https://www.jpvrporn.com/2018/03/14/vovs-346-%e9%95%b7%e5%b0%ba41%e5%88%86%e3%83%bb%e9%ab%98%e7%94%bb%e8%b3%aa-%e8%b6%85%e6%95%8f%e6%84%9f-%e6%b0%b8%e4%ba%95%e3%81%bf%e3%81%b2%e3%81%aa%e3%81%8c-%e3%81%9a%e3%83%bc%e3%83%bc%e3%83%bc/100%Daily2018-03-22 12:29
https://www.jpvrporn.com/2018/03/14/vovs-341-%e9%95%b7%e5%b0%ba43%e5%88%86%e3%83%bb%e9%ab%98%e7%94%bb%e8%b3%aa-%e6%a7%98%e3%80%85%e3%81%aa%e4%bd%93%e4%bd%8d%e3%81%a7%e7%be%8e%e2%97%8b%e3%83%b3%e3%81%ab%e3%83%96%e3%83%81%e8%be%bc/100%Daily2018-03-22 12:29
https://www.jpvrporn.com/2018/03/14/setagayavr-001-%ef%bc%88%e5%8c%a0%ef%bc%89%e5%a6%8a%e5%a8%a0%e3%82%a6%e3%82%a7%e3%83%ab%e3%82%ab%e3%83%a0%e3%81%aa%e3%82%b9%e3%82%b1%e3%83%99%e3%83%8b%e3%83%83%e3%83%88%e3%81%ae%e5%bd%bc%e5%a5%b3-2/100%Daily2018-03-22 12:29
https://www.jpvrporn.com/2018/03/14/avvr-329-%e3%83%94%e3%83%bc%e3%83%94%e3%83%b3%e3%82%b0%e3%83%88%e3%83%a0%ef%bc%81%ef%bc%81%e5%a5%b3%e5%ad%90%e6%9b%b4%e8%a1%a3%e5%ae%a4%e3%81%a7%e8%a1%8c%e3%82%8f%e3%82%8c%e3%81%84%e3%81%a6%e3%81%84/100%Daily2018-03-22 12:29
https://www.jpvrporn.com/2018/03/14/kmvr-367-kvr1803-16%e3%80%90vr%e3%80%91%e3%83%97%e3%83%aa%e3%83%83%e3%81%a8%e5%8f%af%e6%84%9b%e3%81%84%e6%a1%83%e5%b0%bb%e5%a5%b3%e5%ad%90%e6%a0%a1%e7%94%9f%e3%81%82%e3%82%84%e3%81%a8%e3%82%a8-2/100%Daily2018-03-22 12:29
https://www.jpvrporn.com/2018/03/14/hnvr-001-%e3%80%90vr%e3%80%91%e3%80%90%e6%9c%ac%e4%b8%advr%e3%80%91%e5%83%95%e3%81%ae%e3%81%93%e3%81%a8%e3%82%92%e5%a5%bd%e3%81%8d%e3%81%99%e3%81%8e%e3%82%8b%e5%a6%b9%e3%81%a8%e7%94%98%ef%bd%9e/100%Daily2018-03-22 12:29
https://www.jpvrporn.com/2018/03/14/crvr-060-%e3%80%90vr%e3%80%91%e5%a7%ab%e5%b7%9d%e3%82%86%e3%81%86%e3%81%aa-%e3%81%8b%e3%82%8f%e3%81%84%e3%81%84%e3%83%a1%e3%82%a4%e3%83%89%e3%81%a8%e4%b8%ad%e5%87%ba%e3%81%97%e3%82%bb%e3%83%83/100%Daily2018-03-22 12:29
https://www.jpvrporn.com/2018/03/13/vovs-207-%e3%80%90%e9%95%b7%e5%b0%ba%e3%83%bb%e9%ab%98%e7%94%bb%e8%b3%aavr%e3%80%91%e3%81%95%e3%81%a8%e3%81%86%e6%84%9b%e7%90%86-%e7%94%9f%e4%b8%ad%e5%87%ba%e3%81%97-%e9%80%a3%e7%b6%9a2%e7%99%ba/100%Daily2018-03-22 12:29
https://www.jpvrporn.com/2018/03/13/wpvr-095-%e3%80%90vr%e3%80%91%e7%94%b7%e6%80%a7%e9%99%90%e5%ae%9a%e3%83%81%e3%82%af%e3%83%93%e6%80%a7%e6%84%9f%e3%82%af%e3%83%aa%e3%83%8b%e3%83%83%e3%82%af-%e6%ab%bb%e4%ba%95%e8%8f%9c%e3%80%85/100%Daily2018-03-22 12:29
https://www.jpvrporn.com/2018/03/13/exvr-111-%e3%80%90%e5%8c%a0%e3%80%91%e3%81%ad%e3%81%87%e3%81%93%e3%81%a3%e3%81%a1%e6%9d%a5%e3%81%a6%e2%98%86-vr-%e3%81%82%e3%81%93%e3%81%8c%e3%82%8c%e3%81%ae%e6%95%99%e8%82%b2%e5%ae%9f%e7%bf%92/100%Daily2018-04-18 13:04
https://www.jpvrporn.com/2018/03/13/exvr-118-%e3%80%90%e5%8c%a0%e3%80%91%e6%b3%a2%e6%9c%a8%e3%81%af%e3%82%8b%e3%81%8b%e3%81%a8%e3%81%8a%e5%ae%b6%e3%83%87%e3%83%bc%e3%83%88%e2%98%86-%e3%82%a4%e3%83%81%e3%83%a3%e3%82%a4%e3%83%81-2/100%Daily2018-03-14 20:41
https://www.jpvrporn.com/2018/03/13/tbvr-002-vr%e9%95%b7%e5%b0%ba%ef%bc%81%e5%80%92%e9%8c%af%e3%83%ac%e3%82%ba%e3%83%93%e3%82%a2%e3%83%b33%e6%9c%ac%e7%ab%8b%e3%81%a6%ef%bc%81%e7%b7%8a%e7%b8%9b%e8%aa%bf%e6%95%99%e3%81%a7%e5%bf%ab/100%Daily2018-03-26 15:44
https://www.jpvrporn.com/2018/03/13/3dsvr-222-%e3%80%90vr%e3%80%91%e6%9c%80%e9%ab%98%e3%81%ab%e3%82%a8%e3%83%83%e3%83%81%e3%81%a7%e5%8f%af%e6%84%9b%e3%81%84%e7%b4%97%e5%80%89%e3%81%be%e3%81%aa%e3%81%8c%e3%82%a2%e3%83%8a%e3%82%bf/100%Daily2018-03-14 20:41
https://www.jpvrporn.com/2018/03/13/kmvr-364-kvr1802-7-%e3%80%90vr%e3%80%91%e3%80%8c%e6%97%a6%e9%82%a3%e3%81%ab%e3%81%af%e5%86%85%e7%b7%92%e3%81%a7%e3%81%99%e3%82%88%e3%80%8d%e3%81%a3%e3%81%a8%e5%b7%a8%e4%b9%b3%e3%82%92%e6%8f%ba-2/100%Daily2018-03-14 20:41
https://www.jpvrporn.com/2018/03/13/crvr-088-%e3%80%90%e5%8c%a0%e3%80%91%e6%9e%a2%e6%9c%a8%e3%81%82%e3%81%8a%e3%81%84-%e3%82%b9%e3%82%af%e6%b0%b4%e3%83%a1%e3%82%a4%e3%83%89%e3%81%a8%e4%b8%ad%e5%87%ba%e3%81%97sex%ef%bc%81%e3%83%9c-2/100%Daily2018-03-14 20:41
https://www.jpvrporn.com/2018/03/13/3dsvr-226-%e3%80%90vr%e3%80%91av%e9%91%91%e8%b3%9e%e4%b8%ad%e5%a7%89%e3%81%ab%e3%82%aa%e3%83%8a%e3%81%b0%e3%82%8c%e3%81%97%e3%81%9f%e5%83%95%e3%80%81%e3%81%9d%e3%81%ae%e3%81%be%e3%81%be%e4%b8%80-2/100%Daily2018-03-14 20:41
https://www.jpvrporn.com/2018/03/13/3dsvr-193-%e3%80%90vr%e3%80%91av%e6%a5%ad%e7%95%8c%e3%83%8a%e3%83%b3%e3%83%90%e3%83%bc1%e3%81%ae%e5%87%84%e3%83%86%e3%82%af%e3%82%92%e3%83%aa%e3%82%a2%e3%83%ab%e4%bd%93%e9%a8%933%e7%99%ba%e5%b0%84-2/100%Daily2018-03-14 20:41
https://www.jpvrporn.com/2018/03/13/3dsvr-191-%e3%80%90vr%e3%80%91%e8%aa%bf%e6%95%99%e6%b8%88%e3%81%bf%e3%83%89m%e5%a6%bb%e3%82%92%e5%b7%ae%e3%81%97%e5%87%ba%e3%81%97%e3%81%a6%e3%81%8d%e3%81%9f%e9%9a%a3%e4%ba%ba%e5%a4%ab%e5%a9%a6-2/100%Daily2018-03-14 20:41
https://www.jpvrporn.com/2018/03/13/wpvr-107-%e3%80%90vr%e3%80%91%e6%b8%a9%e6%b3%89%e6%97%85%e9%a4%a8%e3%81%ae%e4%bb%b2%e5%b1%85%e3%81%95%e3%82%93%e3%81%a8%e5%a3%b0%e3%82%ac%e3%83%9e%e3%83%b3%e6%80%a7%e4%ba%a4%e3%81%a7%e3%82%82-2/100%Daily2018-03-14 20:41
https://www.jpvrporn.com/2018/03/13/wpvr-106-%e3%80%90vr%e3%80%91%e6%8e%a5%e5%90%bb%e3%81%97%e3%81%be%e3%81%8f%e3%82%8a%e6%b7%ab%e5%8f%a3%e3%82%88%e3%81%a0%e3%82%8c%e3%82%a2%e3%82%a4%e3%83%89%e3%83%ab-%e5%8d%97%e6%a2%a8%e5%a4%ae-2/100%Daily2018-03-14 20:41
https://www.jpvrporn.com/2018/03/13/vvvr-004-%e3%80%90vivid-vr%e3%80%91%e5%a5%87%e8%b7%a1%e3%81%aew%e7%be%8e%e9%ad%94%e5%a5%b3%e3%81%8c%e7%94%b7%e3%81%ae%e7%b2%be%e6%b6%b2%e3%82%bc%e3%83%ad%e3%81%ab%e3%81%aa%e3%82%8b%e3%81%be%e3%81%a7-2/100%Daily2018-03-14 20:41
https://www.jpvrporn.com/2018/03/12/vovs-200-%e3%80%90vr%e3%80%91%e5%8f%8c%e8%91%89%e8%89%af%e9%a6%99-%e7%94%9f%e4%b8%ad%e5%87%ba%e3%81%97-%e6%bd%ae%e5%90%b9%e3%81%8d%e6%80%a7%e4%ba%a4/100%Daily2018-04-07 10:12
https://www.jpvrporn.com/2018/03/12/opvr-005-%e3%80%90vr%e3%80%91%e7%b5%b6%e6%99%afvr%ef%bc%81%e8%84%b1%e7%b3%9e%e8%a6%8b%e3%81%9b%e3%81%a4%e3%81%91%e7%b3%9e%e3%83%95%e3%82%a7%e3%83%a9%e9%81%8a%e6%88%af%ef%bc%81-%e9%80%a2%e6%b2%a2/100%Daily2018-03-14 20:41
https://www.jpvrporn.com/2018/03/12/gunm-003-%e3%80%90vr%e3%80%91vr-%e9%95%b7%e5%b0%ba-%e3%82%bb%e3%82%af%e3%82%b7%e3%83%bc%ef%bc%81-%e4%bd%93%e5%8a%9b%e6%b8%ac%e5%ae%9a/100%Daily2018-03-14 20:41
https://www.jpvrporn.com/2018/03/12/dtcvr-001-%e3%80%90vr%e3%80%91%e5%be%b9%e5%ba%95%e6%94%bb%e7%95%a5vr-%e5%8d%97%e6%a2%a8%e5%a4%ae%e5%a5%88/100%Daily2018-04-15 18:55
https://www.jpvrporn.com/2018/03/12/etvco-010-%e3%80%90vr%e3%80%91%e9%a6%ac%e7%94%a8%e8%88%88%e5%a5%ae%e5%89%a4%e3%82%92%e9%a3%b2%e3%82%93%e3%81%a0%e7%94%b7%e5%a5%b3%e3%81%8c%e4%b8%ad%e5%87%ba%e3%81%97%e3%81%90%e3%81%a1%e3%82%87-2/100%Daily2018-03-14 20:41
https://www.jpvrporn.com/2018/03/12/kmvr-367-kvr1803-16%e3%80%90vr%e3%80%91%e3%83%97%e3%83%aa%e3%83%83%e3%81%a8%e5%8f%af%e6%84%9b%e3%81%84%e6%a1%83%e5%b0%bb%e5%a5%b3%e5%ad%90%e6%a0%a1%e7%94%9f%e3%81%82%e3%82%84%e3%81%a8%e3%82%a8/100%Daily2018-03-14 20:41
https://www.jpvrporn.com/2018/03/12/exvr-117-%e3%80%90%e5%8c%a0%e3%80%91%e4%ba%ba%e6%b0%97%ef%bd%81%ef%bd%96%e5%a5%b3%e5%84%aa%e3%81%8c%e5%9c%a8%e5%b8%ad%e3%81%99%e3%82%8b-%e3%81%93%e3%81%a3%e3%81%9d%e3%82%8a%e3%83%8a%e3%83%9e%e3%81%a7/100%Daily2018-03-14 20:41
https://www.jpvrporn.com/2018/03/12/tarm-005-2017-12-08-nanahachi-koko-nonomiya-shinosaki-mio-%e4%b8%83%e8%8f%9c%e5%8e%9f%e3%82%b3%e3%82%b3-%e9%87%8e%e3%80%85%e5%ae%ae%e3%81%bf%e3%81%95%e3%81%a8-%e7%af%a0%e5%b4%8e%e3%81%bf%e3%81%8a-2-2/100%Daily2018-03-14 20:41
https://www.jpvrporn.com/2018/03/12/tarm-003-2k3k-2017-12-05-remi-hoshisaki-%e6%98%9f%e5%92%b2%e4%bc%b6%e7%be%8e-%e3%80%90%e5%8c%a0%e3%80%91%e6%98%9f%e5%92%b2%e4%bc%b6%e7%be%8e%e3%81%ae%e3%81%ac%e3%82%8b%e3%81%ac%e3%82%8b%e3%82%aa-2/100%Daily2018-03-14 20:41
https://www.jpvrporn.com/2018/03/12/extk307-308-%e3%80%90%e5%8c%a0%e3%80%91%e9%ad%85%e3%81%9b%e3%81%a4%e3%81%91vr%e3%80%80%e5%90%9b%e8%89%b2%e8%8a%b1%e9%9f%b3-2-2/100%Daily2018-03-14 20:41
https://www.jpvrporn.com/2018/03/12/bmvr-015-%e3%80%90vr%e3%80%91%e3%82%a8%e3%83%83%e3%83%81%e3%81%aa%e5%84%aa%e5%b8%8c%e9%9f%b3%e3%81%a1%e3%82%83%e3%82%93%e3%83%8a%e3%83%bc%e3%82%b9%e3%81%ae%e3%82%a8%e3%83%ad%e3%82%a8%e3%83%ad%e4%b8%ad/100%Daily2018-03-14 20:41
https://www.jpvrporn.com/2018/03/12/vrtm075-077-%e9%87%8c%e7%be%8e%e3%81%be%e3%82%86%e3%81%a8%e3%83%a9%e3%83%96%e3%83%a9%e3%83%96sex/100%Daily2018-03-14 20:41
https://www.jpvrporn.com/2018/03/12/osl022-%e5%a5%b3%e5%ad%90%e9%ab%98%e7%94%9f%e3%81%ae%e6%97%a5%e5%b8%b8%ef%bc%81%ef%bc%9f%e3%80%80%e3%80%80%e6%9b%b4%e8%a1%a3%e5%ae%a4%e3%81%a7%e3%81%ae%e7%9d%80%e6%9b%bf%e3%81%88%e3%82%92%e8%a6%97/100%Daily2018-03-14 20:41
https://www.jpvrporn.com/2018/03/11/wpvr-107-%e3%80%90vr%e3%80%91%e6%b8%a9%e6%b3%89%e6%97%85%e9%a4%a8%e3%81%ae%e4%bb%b2%e5%b1%85%e3%81%95%e3%82%93%e3%81%a8%e5%a3%b0%e3%82%ac%e3%83%9e%e3%83%b3%e6%80%a7%e4%ba%a4%e3%81%a7%e3%82%82/100%Daily2018-03-14 20:41
https://www.jpvrporn.com/2018/03/11/vovs-199-%e3%80%90%e9%ab%98%e7%94%bb%e8%b3%aavr%e3%80%91%e5%8a%a0%e8%97%a4%e3%81%bf%e3%82%86%e7%b4%80-%e7%94%9f%e4%b8%ad%e5%87%ba%e3%81%97-%e3%82%aa%e3%82%a4%e3%83%ab%e3%82%a8%e3%82%b9%e3%83%86/100%Daily2018-03-14 20:41
https://www.jpvrporn.com/2018/03/11/dsvr-014-%e3%80%90vr%e3%80%91%e5%9b%ba%e5%ae%9a%e3%83%90%e3%82%a4%e3%83%96%e3%83%81%e3%83%a3%e3%83%ac%e3%83%b3%e3%82%b8vr%e3%80%82%e6%99%82%e9%96%93%e5%86%85%e3%81%ab%e3%82%a4%e3%82%ab%e3%82%bb/100%Daily2018-03-27 13:16
https://www.jpvrporn.com/2018/03/11/wpvr-105-%e6%8e%a8%e5%b7%9d%e3%82%86%e3%81%86%e3%82%8a-%e7%ab%a5%e8%b2%9e%e3%82%af%e3%83%b3%e3%81%a8%e4%b8%ad%e5%87%ba%e3%81%97%e4%b8%8d%e5%80%ab-2-2/100%Daily2018-03-11 15:58
https://www.jpvrporn.com/2018/03/11/tmavr-041-%e3%80%90vr%e3%80%91%e8%89%a6%e9%9a%8a%e7%be%8e%e5%b0%91%e5%a5%b3%e3%83%ac%e3%82%a4%e3%83%a4%e3%83%bcvr-%e5%92%8c%e5%bc%8f%e9%87%8d%e5%b7%a1%e6%b4%8b%e8%89%a6-%e5%a4%a9%e9%87%8e%e7%be%8e/100%Daily2018-03-14 20:42
https://www.jpvrporn.com/2018/03/11/mmcpvr-002-%e3%80%90vr%e3%80%91%e8%b6%85%e8%87%b3%e8%bf%91%e8%b7%9d%e9%9b%a2%e3%81%a7%e3%82%a2%e3%82%a4%e3%83%89%e3%83%ab%e3%83%80%e3%83%b3%e3%82%b9%ef%bc%86%e3%83%91%e3%83%b3%e3%83%81%e3%83%a9-2/100%Daily2018-04-11 10:12
https://www.jpvrporn.com/2018/03/11/hnvr-004-%e3%80%90vr%e3%80%91%e6%9c%ac%e4%b8%advr-%e9%95%b7%e5%b0%ba%e3%82%bd%e3%83%bc%e3%83%97av%e5%a5%b3%e5%84%aa%e3%81%8c%e5%9c%a8%e7%b1%8d%e3%81%99%e3%82%8b%e8%b6%85%e9%ab%98%e7%b4%9a%e3%82%bd/100%Daily2018-03-14 20:42
https://www.jpvrporn.com/2018/03/11/dtvr-001-%e3%80%90vr%e3%80%91%e5%88%b6%e6%9c%8d%e7%be%8e%e5%b0%91%e5%a5%b3%e3%81%a8%e6%80%a7%e4%ba%a4-vr-%e5%b0%8f%e6%9e%9d%e6%88%90%e5%ae%9f/100%Daily2018-03-14 20:42
https://www.jpvrporn.com/2018/03/11/dsvr-027-%e3%80%90vr%e3%80%91%e6%97%a6%e9%82%a3%e3%81%ab%e9%9b%bb%e8%a9%b1%e3%81%95%e3%81%9b%e3%81%aa%e3%81%8c%e3%82%89%e5%af%9d%e5%8f%96%e3%82%8a%e3%82%bb%e3%83%83%e3%82%af%e3%82%b9-%e3%81%aa/100%Daily2018-03-14 20:42
https://www.jpvrporn.com/2018/03/11/avvr-328-%e3%80%90vr%e3%80%91%e3%81%8a%e9%83%a8%e5%b1%8b%e3%81%a7%e3%81%a8%e3%82%8d%e3%81%a8%e3%82%8d%e3%81%82%e3%81%be%e3%83%bc%e3%81%84%e3%83%ad%e3%83%bc%e3%82%b7%e3%83%a7%e3%83%b3%e4%b8%ad%e5%87%ba/100%Daily2018-03-14 20:42
https://www.jpvrporn.com/2018/03/11/avvr-327-%e3%80%90vr%e3%80%91%e7%a5%9e%e3%83%91%e3%82%a4%e3%82%ba%e3%83%aa%e3%83%98%e3%83%96%e3%83%b3-%e8%8b%a5%e8%8f%9c%e5%a5%88%e5%a4%ae/100%Daily2018-03-14 20:42
https://www.jpvrporn.com/2018/03/11/avvr-326-%e3%80%90vr%e3%80%91%e3%83%94%e3%83%b3%e3%82%b5%e3%83%ad-%e3%83%96%e3%83%aa%e3%83%83%e3%82%b8%e3%83%95%e3%82%a7%e3%83%a9-%e6%b5%9c%e5%b4%8e%e3%81%aa%e3%81%8a/100%Daily2018-03-14 20:42
https://www.jpvrporn.com/2018/03/11/mdvr-018-%e3%80%90vr%e3%80%91%e6%96%b03dvr%e7%a5%9e%e7%be%8e%e4%b9%b3%e3%81%8c%e3%83%a9%e3%83%96%e3%83%a9%e3%83%96%e8%b6%85%e5%af%86%e7%9d%80%e5%90%8c%e6%a3%b2%e4%bd%93%e9%a8%93-%e6%b0%b4%e5%8d%9c/100%Daily2018-03-14 20:42
https://www.jpvrporn.com/2018/03/10/fait-009-%e3%80%90vr%e3%80%91act1-%e3%81%84%e3%81%a4%e3%82%82%e3%81%a8%e9%81%95%e3%81%86%e5%a0%b4%e6%89%80%e3%81%a7-%e4%b8%ad%e9%87%8e%e3%82%86%e3%81%8d%e3%81%bf/100%Daily2018-03-10 22:36
https://www.jpvrporn.com/2018/03/10/vorm-022-%e3%80%90vr%e3%80%91%e9%95%b7%e5%b0%ba108%e5%88%86-%e3%83%95%e3%82%a7%e3%83%a9-best-%e8%b6%85%e8%b1%aa%e8%8f%af%e5%a5%b3%e5%84%aa%e3%81%ae%e6%8a%80%e3%81%8c%e3%83%a2%e3%82%b6%e3%82%a4/100%Daily2018-03-11 12:42
https://www.jpvrporn.com/2018/03/10/wpvr-094-%e3%80%90vr%e3%80%91%e3%82%b9%e3%82%ab%e3%83%bc%e3%83%88%e3%81%ae%e4%b8%ad%e3%81%a7%e3%82%a4%e3%82%bf%e3%82%ba%e3%83%a9%ef%bc%86%e5%a3%b0%e3%82%ac%e3%83%9e%e3%83%b3%e6%80%a7%e4%ba%a4/100%Daily2018-03-10 22:36
https://www.jpvrporn.com/2018/03/10/wpvr-092-%e3%80%90vr%e3%80%91m%e7%94%b7%e3%82%af%e3%83%b3%e3%81%ae%e3%82%a2%e3%83%91%e3%83%bc%e3%83%88%e3%81%ae%e9%8d%b5%e3%80%81%e8%b2%b8%e3%81%97%e3%81%be%e3%81%99%e3%80%82-%e6%a1%90%e5%b6%8b/100%Daily2018-03-11 18:00
https://www.jpvrporn.com/2018/03/10/tfvr-031-%e3%80%90vr%e3%80%91%e5%b7%a8%e4%b9%b3%e9%81%8a%e6%88%af-%e7%ac%b9%e5%80%89%e6%9d%8f/100%Daily2018-03-10 22:36
https://www.jpvrporn.com/2018/03/10/vovs-378-%e3%80%90vr%e3%80%91%e9%95%b7%e5%b0%ba44%e5%88%86%e3%83%bb%e9%ab%98%e7%94%bb%e8%b3%aa-%e3%83%a9%e3%83%96%e3%82%a4%e3%83%81%e3%83%a3vr%e5%bd%bc%e5%a5%b3-%e3%81%84%e3%81%a3%e3%81%b1%e3%81%84/100%Daily2018-03-10 22:36
https://www.jpvrporn.com/2018/03/10/vovs-363-%e3%80%90vr%e3%80%91%e9%95%b7%e5%b0%ba42%e5%88%86%e3%83%bb%e9%ab%98%e7%94%bb%e8%b3%aa-%e3%82%a4%e3%83%81%e3%83%a3%e3%82%a4%e3%83%81%e3%83%a3sex%e4%b8%ad-%e3%83%90%e3%82%a4%e3%83%88%e3%81%ae/100%Daily2018-03-10 22:36
https://www.jpvrporn.com/2018/03/10/vovs-345-%e3%80%90vr%e3%80%91%e9%95%b7%e5%b0%ba56%e5%88%86%e3%83%bb%e9%ab%98%e7%94%bb%e8%b3%aa-%e5%aa%9a%e8%96%ac%e3%81%a7%e5%85%a8%e8%ba%ab%e6%80%a7%e6%84%9f%e5%b8%af%e3%81%a8%e3%81%aa%e3%82%8b/100%Daily2018-03-10 22:36
https://www.jpvrporn.com/2018/03/10/vovs-329-%e3%80%90vr%e3%80%91%e9%95%b7%e5%b0%ba48%e5%88%86%e3%83%bb%e9%ab%98%e7%94%bb%e8%b3%aa-%e3%81%b6%e3%81%a3%e3%81%8b%e3%81%91%e6%80%a7%e4%ba%a4-%e6%b1%9a%e3%81%95%e3%82%8c%e3%82%8b%e7%be%8e/100%Daily2018-03-10 22:36
https://www.jpvrporn.com/2018/03/10/vovs-336-%e3%80%90vr%e3%80%91%e9%95%b7%e5%b0%ba44%e5%88%86%e3%83%bb%e9%ab%98%e7%94%bb%e8%b3%aa-%e3%83%95%e3%82%a7%e3%83%a9%e5%a4%a7%e5%a5%bd%e3%81%8d%e5%a6%b9%e3%81%a8%e7%94%9f%e4%b8%ad%e5%87%ba-2/100%Daily2018-03-10 22:36
https://www.jpvrporn.com/2018/03/10/vovs-300-%e3%80%90vr%e3%80%91%e9%95%b7%e5%b0%ba42%e5%88%86%e3%83%bb%e9%ab%98%e7%94%bb%e8%b3%aa-%e3%81%b2%e3%81%aa%e3%81%bf%e3%82%8c%e3%82%93-%e3%83%a9%e3%83%96%e3%82%a4%e3%83%81%e3%83%a3vr%e8%b6%85-2/100%Daily2018-03-10 22:36
https://www.jpvrporn.com/2018/03/09/hunvr-003-%e3%80%90vr%e9%95%b7%e5%b0%ba%e3%80%91%e3%80%8c%e3%81%bb%e3%82%89%ef%bc%81%e4%bb%8a%e3%80%81%e5%85%88%e3%81%a3%e3%81%bd%e6%8c%bf%e3%81%a3%e3%81%9f%e3%81%a7%e3%81%97%e3%82%87%e3%81%86/100%Daily2018-03-10 22:36
https://www.jpvrporn.com/2018/03/09/gunm-002-%e3%80%90vr%e3%80%91%e5%a5%b3%e6%b9%afvr/100%Daily2018-03-10 22:36
https://www.jpvrporn.com/2018/03/09/opvr-004-%e3%80%90vr%e3%80%91%e7%b5%b6%e6%99%afvr%ef%bc%81%e8%84%b1%e7%b3%9e%e8%a6%8b%e3%81%9b%e3%81%a4%e3%81%91%e7%b3%9e%e3%83%95%e3%82%a7%e3%83%a9%e9%81%8a%e6%88%af%ef%bc%81-%e4%b9%85%e6%88%91/100%Daily2018-03-10 22:36
https://www.jpvrporn.com/2018/03/09/exvr-118-%e3%80%90%e5%8c%a0%e3%80%91%e6%b3%a2%e6%9c%a8%e3%81%af%e3%82%8b%e3%81%8b%e3%81%a8%e3%81%8a%e5%ae%b6%e3%83%87%e3%83%bc%e3%83%88%e2%98%86-%e3%82%a4%e3%83%81%e3%83%a3%e3%82%a4%e3%83%81%e3%83%a3/100%Daily2018-03-18 21:33
https://www.jpvrporn.com/2018/03/09/exvr-104-%e3%80%90vr%e3%80%91%e5%a5%b3%e5%ad%90%e2%97%8f%e7%94%9f%e3%81%82%e3%81%84%e3%81%a8%e5%8f%aa%e4%bb%8a%e5%90%8c%e6%a3%b2%e4%b8%ad%e2%97%86%e5%88%b6%e6%9c%8d%ef%bc%86%e3%83%96%e3%83%bc%e3%83%84/100%Daily2018-03-17 15:10
https://www.jpvrporn.com/2018/03/09/wpvr-106-%e3%80%90vr%e3%80%91%e6%8e%a5%e5%90%bb%e3%81%97%e3%81%be%e3%81%8f%e3%82%8a%e6%b7%ab%e5%8f%a3%e3%82%88%e3%81%a0%e3%82%8c%e3%82%a2%e3%82%a4%e3%83%89%e3%83%ab-%e5%8d%97%e6%a2%a8%e5%a4%ae/100%Daily2018-03-10 22:36
https://www.jpvrporn.com/2018/03/09/skhvr-004-2k3k-2017-09-15-long-59-mins-kanna-ruka-%e6%9f%91%e5%8d%97%e3%82%8b%e3%81%8b-%e9%ab%98%e7%b4%9a%e7%be%8e%e4%ba%ba%e5%a6%bb%e5%87%ba%e5%bc%b5%e3%82%bd%e3%83%bc%e3%83%97/100%Daily2018-03-25 14:54
https://www.jpvrporn.com/2018/03/09/samtk014-016-2k3k-2017-08-26-tsukimoto-ai-%e6%9c%88%e6%9c%ac%e6%84%9b-%ef%bd%8f%ef%bd%8c%e7%b7%a8%e3%83%bb%e3%83%8f%e3%83%97%e3%83%8b%e3%83%b3%e3%82%b0%e3%81%a7%e3%83%a9%e3%83%83%e3%82%ad%e3%83%bc-2/100%Daily2018-03-10 22:36
https://www.jpvrporn.com/2018/03/09/kmvr-330-kvr1712-25-3k-kawanami-nori-%e6%b2%b3%e5%8d%97%e5%ae%9f%e9%87%8c-%e3%80%8c%e9%80%a3%e7%b6%9a%e3%81%a7%e3%82%82%e5%b0%84%e7%b2%be%e3%81%a7%e3%81%8d%e3%82%8b%e3%82%88%e3%81%ad%ef%bc%9f-2-2/100%Daily2018-03-10 22:36
https://www.jpvrporn.com/2018/03/09/jvrporn-100095-2018-03-07-special-morning-call/100%Daily2018-03-10 22:37
https://www.jpvrporn.com/2018/03/09/ajvr-005-%e3%80%90vr%e3%80%91k%e3%82%ab%e3%83%83%e3%83%97%e3%81%ae%e7%be%8e%e7%88%86%e4%b9%b3%e3%81%ab%e9%a1%94%e3%81%8c%e5%9f%8b%e3%82%82%e3%82%8c%e3%82%8b%e3%83%91%e3%83%95%e3%83%91%e3%83%95-2/100%Daily2018-03-10 22:36
https://www.jpvrporn.com/2018/03/08/prdvr-020-pdvr-020-%e3%80%90vr%e3%80%91%e6%84%9b%e3%81%82%e3%82%8b%e3%82%ad%e3%82%b9%e3%81%ae%e5%b5%90%ef%bc%81%e5%88%b6%e6%9c%8d%e3%82%ab%e3%83%8e%e3%82%b8%e3%83%a7%e3%83%bb%e5%9c%92%e7%94%b0-2-2/100%Daily2018-03-10 22:36
https://www.jpvrporn.com/2018/03/08/wpvr-104-%e4%b8%87%e5%bc%95%e3%81%8d%e3%83%a0%e3%82%b9%e3%83%a1%e8%a3%9c%e5%b0%8e%e5%9b%9e%e9%81%bf%e3%83%9e%e3%83%8b%e3%83%a5%e3%82%a2%e3%83%ab-%e6%98%9f%e5%a5%88%e3%81%82%e3%81%84/100%Daily2018-03-31 10:53
https://www.jpvrporn.com/2018/03/08/wpvr-103-%e5%bf%b5%e9%a1%98%e3%81%aeav%e5%88%b6%e4%bd%9c%e4%bc%9a%e7%a4%be%e3%81%ab%e5%85%a5%e7%a4%be%e3%81%97%e6%86%a7%e3%82%8c%e3%81%ae%e5%a5%b3%e5%84%aa%e3%83%bb%e9%ba%bb%e9%87%8c%e6%a2%a8%e5%a4%8f/100%Daily2018-03-10 22:37
https://www.jpvrporn.com/2018/03/08/mgvr-005-%e3%80%90vr%e3%80%91%e5%9c%b0%e5%91%b3%e5%8f%af%e6%84%9b%e3%81%84%e3%82%b5%e3%83%bc%e3%82%af%e3%83%ab%e3%81%ae%e5%be%8c%e8%bc%a9%e3%81%8c%e9%9a%8e%e6%ae%b5%e6%8e%83%e9%99%a4%e4%b8%ad%e3%81%ab/100%Daily2018-03-10 22:37
https://www.jpvrporn.com/2018/03/08/apvr-005-vr%e9%95%b7%e5%b0%ba-%e3%82%bb%e3%82%af%e3%83%8f%e3%83%a9%e5%81%a5%e5%ba%b7%e8%a8%ba%e6%96%advr/100%Daily2018-03-26 16:47
https://www.jpvrporn.com/2018/03/08/ajvr-008-%e3%81%a9%e3%81%86%e3%81%97%e3%81%a6%e3%82%82%e8%b5%a4%e3%81%a1%e3%82%83%e3%82%93%e3%82%92%e6%ac%b2%e3%81%97%e3%81%8c%e3%82%8b%e5%bd%bc%e5%a5%b3%e3%81%8c%e3%80%81%e3%82%a8%e3%83%83%e3%83%81/100%Daily2018-03-10 22:37
https://www.jpvrporn.com/2018/03/08/ajvr-007-%e5%86%85%e7%b7%92%e3%81%a7%e4%bb%98%e3%81%8d%e5%90%88%e3%81%a3%e3%81%a6%e3%82%8b%e5%a5%b3%e5%ad%90%e7%a4%be%e5%93%a1%e3%81%a8%e4%bc%9a%e8%ad%b0%e5%ae%a4%e3%81%a7%e3%82%a4%e3%83%81%e3%83%a3/100%Daily2018-03-10 22:37
https://www.jpvrporn.com/2018/03/08/17448/100%Daily2018-03-26 15:41
https://www.jpvrporn.com/2018/03/08/avvr-325-%e3%82%a8%e3%83%ad%e3%83%a1%e3%82%a4%e3%83%89%e3%81%aew%e3%81%94%e5%a5%89%e4%bb%95%e4%b8%ad%e5%87%ba%e3%81%97sex-%e3%81%82%e3%81%9a%e5%b8%8c-%e5%85%b1%e6%bc%94-%e6%84%9b%e7%80%ac%e7%be%8e/100%Daily2018-03-10 22:37
https://www.jpvrporn.com/2018/03/07/wpvr-087-%e3%80%90vr%e3%80%91%e6%94%be%e8%aa%b2%e5%be%8c%e3%83%96%e3%83%ab%e3%83%9e-%e9%9b%9b%e8%8f%8a%e3%81%a4%e3%81%b0%e3%81%95/100%Daily2018-03-10 22:37
https://www.jpvrporn.com/2018/03/07/vorm-021-%e3%80%90vr%e3%80%91%e9%95%b7%e5%b0%ba112%e5%88%86-%e3%82%aa%e3%83%8a%e3%83%8b%e3%83%bcbest-%e3%82%a2%e3%83%8a%e3%82%bf%e3%81%a0%e3%81%91%e3%81%ab%e8%a6%8b%e3%81%a6%e3%81%a6%e3%81%bb%e3%81%97/100%Daily2018-03-10 22:37
https://www.jpvrporn.com/2018/03/07/vovs-196-%e3%80%90%e9%ab%98%e7%94%bb%e8%b3%aavr%e3%80%91%e5%a4%8f%e6%a8%b9%e3%81%be%e3%82%8a%e3%81%aa-%e7%94%9f%e4%b8%ad%e5%87%ba%e3%81%97-%e7%be%8e%e3%83%9e%e3%83%b3%e3%81%ab%e3%83%96%e3%83%81/100%Daily2018-03-10 22:37
https://www.jpvrporn.com/2018/03/07/setagayavr-001-%ef%bc%88%e5%8c%a0%ef%bc%89%e5%a6%8a%e5%a8%a0%e3%82%a6%e3%82%a7%e3%83%ab%e3%82%ab%e3%83%a0%e3%81%aa%e3%82%b9%e3%82%b1%e3%83%99%e3%83%8b%e3%83%83%e3%83%88%e3%81%ae%e5%bd%bc%e5%a5%b3/100%Daily2018-03-10 22:37
https://www.jpvrporn.com/2018/03/07/kvr1803-6-%e3%80%90%e5%8c%a0%e3%80%91%e5%8f%af%e6%84%9b%e3%81%84%e3%81%8a%e5%b0%bb%e3%81%ab%e3%83%9a%e3%83%b3%e3%83%9a%e3%83%b3%e3%81%8a%e4%bb%95%e7%bd%ae%e3%81%8d%e3%82%bf%e3%82%a4%e3%83%a0/100%Daily2018-03-17 15:46
https://www.jpvrporn.com/2018/03/07/osl-077-2k3k-2017-11-19-yuzu-kitagawa%e3%80%90%e5%8c%a0%e3%80%91%e7%be%8e%e4%ba%baol%e3%81%ab%e5%9c%9f%e4%b8%8b%e5%ba%a7%e8%a6%81%e6%b1%82%ef%bc%86%e5%bc%b7%e5%88%b6%e3%83%95%e3%82%a7%e3%83%a9-2/100%Daily2018-03-10 22:37
https://www.jpvrporn.com/2018/03/07/osl-075-2k3k-2017-11-28-yuzu-kitagawa-%e5%8c%97%e5%b7%9d%e3%82%86%e3%81%9a-%e3%80%90%e5%8c%a0%e3%80%91%e5%8f%af%e6%84%9b%e3%81%99%e3%81%8e%e3%82%8b%e3%83%a1%e3%82%a4%e3%83%89%e3%81%ab%e4%b9%b3-2/100%Daily2018-03-10 22:37
https://www.jpvrporn.com/2018/03/07/kmvr-321-2017-12-20-3k-hitomi-ryou-%e7%9e%b3%e3%83%aa%e3%83%a7%e3%82%a6-%e4%bc%9d%e8%aa%ac%e3%81%ae%e3%83%9e%e3%83%89%e3%83%b3%e3%83%8a%e7%9e%b3%e3%83%aa%e3%83%a7%e3%82%a6-2-2/100%Daily2018-03-10 22:37
https://www.jpvrporn.com/2018/03/07/osl035-039-%ef%bd%8f%ef%bd%8c%ef%bc%94%e4%ba%ba%e7%b5%84%e3%81%ae%e4%bc%91%e6%86%a9%e5%ae%a4%e3%81%a7%e3%81%ae%e6%89%8b%e3%82%b3%e3%82%ad%e3%80%80%ef%bc%8b%e3%82%a8%e3%83%ac%e3%83%99%e3%83%bc%e3%82%bf/100%Daily2018-03-10 22:37
https://www.jpvrporn.com/2018/03/07/osl031-033-%e6%ba%9c%e3%81%be%e3%81%a3%e3%81%a6%e3%82%8b%e6%82%a3%e8%80%85%e3%81%ab%e7%be%a4%e3%81%8c%e3%82%8b%e3%83%8a%e3%83%bc%e3%82%b9%ef%bc%94%e4%ba%ba%e3%81%ae%e4%bb%8b%e8%ad%b7%e6%89%8b%e3%82%b3/100%Daily2018-03-10 22:37
https://www.jpvrporn.com/2018/03/07/osl027-030-%e5%be%85%e5%90%88%e5%ae%a4%e3%81%a7%e5%be%85%e3%81%a3%e3%81%a6%e3%81%84%e3%81%9f%e3%82%89%e3%80%81%e3%81%be%e3%82%8f%e3%82%8a%e3%81%ae%e5%a5%b3%e6%80%a7%e3%81%9f%e3%81%a1%e3%81%8c%e8%a3%b8/100%Daily2018-03-10 22:37
https://www.jpvrporn.com/2018/03/07/osl025-%e5%a5%b3%e5%ad%90%e9%ab%98%e7%94%9f%e3%81%ae%e6%97%a5%e5%b8%b8%ef%bc%81%ef%bc%9f%e3%80%80%e3%80%80%e8%ba%ab%e4%bd%93%e6%b8%ac%e5%ae%9a%e3%81%a7%e3%81%8a%e3%81%a3%e3%81%b1%e3%81%84%e4%b8%b8/100%Daily2018-03-10 22:37
https://www.jpvrporn.com/2018/03/07/osl026-%e5%a5%b3%e5%ad%90%e9%ab%98%e7%94%9f%e3%81%ae%e6%97%a5%e5%b8%b8%ef%bc%81%ef%bc%9f%e3%80%80%e3%80%804%e4%ba%ba%e5%85%a8%e5%93%a1%e3%81%a7%e8%a3%b8%e3%81%a7%e9%a8%8e%e4%b9%97%e4%bd%8d%ef%bc%81/100%Daily2018-03-10 22:37
https://www.jpvrporn.com/2018/03/07/osl016-%e5%a5%b3%e5%ad%90%e9%ab%98%e7%94%9f%e3%81%ae%e6%97%a5%e5%b8%b8%ef%bc%81%ef%bc%9f%e3%80%80%e3%80%80%e3%81%bf%e3%82%93%e3%81%aa%e3%81%8c%e8%87%aa%e5%88%86%e3%81%ae%e3%82%aa%e3%83%8a%e3%83%8b/100%Daily2018-03-10 22:37
https://www.jpvrporn.com/2018/03/06/gunm-001-%e3%80%90vr%e3%80%91%e5%a5%b3%e5%ad%90%e6%a0%a1%e6%97%a5%e5%92%8c%e3%80%82/100%Daily2018-03-10 22:37
https://www.jpvrporn.com/2018/03/06/pmaxvr-002-%e3%80%90vr%e3%80%91%e9%9f%b3%e5%b8%82%e7%be%8e%e9%9f%b3vr%e3%80%90%e9%95%b7%e5%b0%ba%ef%bc%86%e5%9b%ba%e5%ae%9a%ef%bc%8b%e8%a6%96%e7%82%b9%e7%a7%bb%e5%8b%95%e3%80%91%e3%81%a7%e3%82%a4/100%Daily2018-05-01 19:48
https://www.jpvrporn.com/2018/03/06/vovs-193-%e3%80%90%e9%ab%98%e7%94%bb%e8%b3%aavr%e3%80%91%e5%a7%ab%e5%b7%9d%e3%82%86%e3%81%86%e3%81%aa-%e7%94%9f%e4%b8%ad%e5%87%ba%e3%81%97-%e5%87%ba%e4%bc%9a%e3%81%a3%e3%81%a6%e6%95%b0%e7%a7%92/100%Daily2018-03-10 22:37
https://www.jpvrporn.com/2018/03/06/opvr-003-%e3%80%90vr%e3%80%91%e7%b5%b6%e6%99%afvr%ef%bc%81%e8%84%b1%e7%b3%9e%e8%a6%8b%e3%81%9b%e3%81%a4%e3%81%91%e7%b3%9e%e3%83%95%e3%82%a7%e3%83%a9%e9%81%8a%e6%88%af%ef%bc%81-%e6%9c%9d%e6%a1%90/100%Daily2018-03-10 22:37
https://www.jpvrporn.com/2018/03/06/exvr-120-%e3%80%90%e5%8c%a0%e3%80%91%e7%b5%82%e9%9b%bb%e9%96%93%e9%9a%9b%e3%81%a7%e3%83%af%e3%83%b3%e3%83%81%e3%83%a3%e3%83%b3%e7%8b%99%e3%81%a3%e3%81%a6%e5%bc%95%e3%81%8d%e3%81%a8%e3%82%81%e3%81%a6/100%Daily2018-03-10 22:37
https://www.jpvrporn.com/2018/03/06/3dsvr-226-%e3%80%90vr%e3%80%91av%e9%91%91%e8%b3%9e%e4%b8%ad%e5%a7%89%e3%81%ab%e3%82%aa%e3%83%8a%e3%81%b0%e3%82%8c%e3%81%97%e3%81%9f%e5%83%95%e3%80%81%e3%81%9d%e3%81%ae%e3%81%be%e3%81%be%e4%b8%80/100%Daily2018-03-06 22:48
https://www.jpvrporn.com/2018/03/06/3dsvr-193-%e3%80%90vr%e3%80%91av%e6%a5%ad%e7%95%8c%e3%83%8a%e3%83%b3%e3%83%90%e3%83%bc1%e3%81%ae%e5%87%84%e3%83%86%e3%82%af%e3%82%92%e3%83%aa%e3%82%a2%e3%83%ab%e4%bd%93%e9%a8%933%e7%99%ba%e5%b0%84/100%Daily2018-03-06 22:48
https://www.jpvrporn.com/2018/03/06/ajvr-005-%e3%80%90vr%e3%80%91k%e3%82%ab%e3%83%83%e3%83%97%e3%81%ae%e7%be%8e%e7%88%86%e4%b9%b3%e3%81%ab%e9%a1%94%e3%81%8c%e5%9f%8b%e3%82%82%e3%82%8c%e3%82%8b%e3%83%91%e3%83%95%e3%83%91%e3%83%95/100%Daily2018-03-06 22:48
https://www.jpvrporn.com/2018/03/06/vrtm042-%e7%9b%ae%e3%81%ae%e5%89%8d%e3%81%aei%e3%82%ab%e3%83%83%e3%83%97%e7%88%86%e4%b9%b3%e3%81%ab%e3%83%91%e3%82%a4%e3%82%ba%e3%83%aa%e3%81%95%e3%82%8c%e3%82%8b%e5%bf%ab%e6%84%9f/100%Daily2018-03-06 22:48
https://www.jpvrporn.com/2018/03/06/vrtm040-%e7%ab%b6%e6%b3%b3%e6%b0%b4%e7%9d%80%e3%82%b9%e3%83%88%e3%83%ac%e3%83%83%e3%83%81%e8%a6%b3%e5%af%9f/100%Daily2018-03-06 22:48
https://www.jpvrporn.com/2018/03/06/osl019-%e5%a5%b3%e5%ad%90%e9%ab%98%e7%94%9f%e3%81%ae%e6%97%a5%e5%b8%b8%ef%bc%81%ef%bc%9f%e3%80%80%e3%80%80%e6%95%99%e5%ae%a4%e3%81%a74%e4%ba%ba%e3%81%a7%e6%89%8b%e3%82%b3%e3%82%ad%e3%81%97%e3%81%a6/100%Daily2018-03-06 22:48
https://www.jpvrporn.com/2018/03/06/vrtm050-%e6%b1%9a%e3%81%97%e3%81%a1%e3%82%83%e3%81%a3%e3%81%a6%e3%81%94%e3%82%81%e3%82%93%e3%81%aa%e3%81%95%e3%81%84%e3%80%81%e3%82%ad%e3%83%ac%e3%82%a4%e3%81%ab%e3%81%97%e3%81%a6%e3%81%82%e3%81%92/100%Daily2018-03-06 22:48
https://www.jpvrporn.com/2018/03/06/vrtm044-%e7%88%86%e4%b9%b3%ef%bc%86%e3%83%ad%e3%83%aajk-w%e7%97%b4%e5%a5%b3%e8%b2%ac%e3%82%81/100%Daily2018-03-06 22:48
https://www.jpvrporn.com/2018/03/06/vrtm019-%e5%a4%ab%e3%81%a8%e3%81%aesex%e3%81%a0%e3%81%91%e3%81%98%e3%82%83%e6%ba%80%e8%b6%b3%e3%81%a7%e3%81%8d%e3%81%aa%e3%81%84%e6%b7%ab%e4%b9%b1%e4%ba%ba%e5%a6%bb/100%Daily2018-03-06 22:48
https://www.jpvrporn.com/2018/03/06/vrtm018-%e5%90%8c%e3%81%98%e7%97%85%e9%99%a2%e3%81%a7%e5%83%8d%e3%81%8f%e3%83%8a%e3%83%bc%e3%82%b9%e3%82%92%e8%a7%a6%e8%a8%ba/100%Daily2018-03-06 22:48
https://www.jpvrporn.com/2018/03/06/vrtm073-074-jk%e3%81%ae%e7%99%bd%e3%83%91%e3%83%b3%e3%83%86%e3%82%a3%e3%81%a7%e3%82%b7%e3%82%b4%e3%82%ad%e3%81%9f%e3%81%84%e3%83%83%ef%bc%81%ef%bc%81/100%Daily2018-03-06 22:48
https://www.jpvrporn.com/2018/03/06/vrtm016-017-%e3%82%a8%e3%83%ad%e3%81%99%e3%81%8e%e3%82%8b%e3%83%8a%e3%83%bc%e3%82%b9%e3%81%ab%e8%aa%98%e6%83%91%e3%81%95%e3%82%8c%e3%81%9f%ef%bc%81%ef%bc%88%e7%9d%80%e6%9b%bf%e3%81%88%e3%82%b7/100%Daily2018-03-06 22:48
https://www.jpvrporn.com/2018/03/05/wpvr-084-%e3%80%90vr%e3%80%91%e3%82%b3%e3%82%bd%e3%82%b3%e3%82%bd%e8%a9%b1%e3%82%82%e8%81%9e%e3%81%93%e3%81%88%e3%81%a1%e3%82%83%e3%81%84%e3%81%9d%e3%81%86%e3%81%aa%e3%83%9a%e3%83%a9%e3%83%83%e3%83%9a/100%Daily2018-03-06 22:48
https://www.jpvrporn.com/2018/03/05/dsvr-013-%e3%80%90vr%e3%80%91vr-%e9%ab%98%e7%b4%9a%e3%83%a1%e3%83%b3%e3%82%ba%e3%82%a8%e3%82%b9%e3%83%86-%e4%bd%b3%e8%8b%97%e3%82%8b%e3%81%8b/100%Daily2018-03-06 22:48
https://www.jpvrporn.com/2018/03/05/rctvr-003-%e3%80%90vr%e3%80%91rocket3dvr-%e5%b7%a8%e4%b9%b3%e3%81%ae%e6%af%8d%e8%a6%aa%e3%81%a8%e8%a6%aa%e6%88%9a%e3%81%ae%e5%8f%94%e6%af%8d%e3%81%95%e3%82%93%e3%83%80%e3%83%96%e3%83%ab%e3%81%a7/100%Daily2018-03-06 22:48
https://www.jpvrporn.com/2018/03/05/kmvr-364-kvr1802-7-%e3%80%90vr%e3%80%91%e3%80%8c%e6%97%a6%e9%82%a3%e3%81%ab%e3%81%af%e5%86%85%e7%b7%92%e3%81%a7%e3%81%99%e3%82%88%e3%80%8d%e3%81%a3%e3%81%a8%e5%b7%a8%e4%b9%b3%e3%82%92%e6%8f%ba/100%Daily2018-03-06 22:48
https://www.jpvrporn.com/2018/03/05/3dsvr-191-%e3%80%90vr%e3%80%91%e8%aa%bf%e6%95%99%e6%b8%88%e3%81%bf%e3%83%89m%e5%a6%bb%e3%82%92%e5%b7%ae%e3%81%97%e5%87%ba%e3%81%97%e3%81%a6%e3%81%8d%e3%81%9f%e9%9a%a3%e4%ba%ba%e5%a4%ab%e5%a9%a6/100%Daily2018-03-06 22:48
https://www.jpvrporn.com/2018/03/05/vfdv081-%e3%80%90%e7%84%a1%e6%96%99-%e5%8c%a0%e3%80%91%e3%83%90%e3%82%a4%e3%83%8e%e3%83%bc%e3%83%a9%e3%83%ab%e3%81%9d%e3%81%ae%e5%89%8d%e3%81%ab%ef%bc%81%e5%84%aa%e3%81%97%e3%81%84%e7%ac%91%e9%a1%94/100%Daily2018-03-06 22:48
https://www.jpvrporn.com/2018/03/05/kmvr-300-kvr1709-35-3k-2017-09-22-%e9%9c%a7%e5%b3%b6%e3%81%95%e3%81%8f%e3%82%89%e3%80%80%e3%81%aa%e3%81%a4%e3%82%81%e6%84%9b%e8%8e%89-%e6%b7%b7%e6%b5%b4%e3%82%b5%e3%82%a6%e3%83%8a%e3%81%a7-2/100%Daily2018-03-06 22:48
https://www.jpvrporn.com/2018/03/05/kmvr-297-kvr1710-4-2017-09-22-%e5%ae%ae%e5%b4%8e%e3%81%82%e3%82%84%e3%80%90%e5%8c%a0%e3%80%91%e3%82%a4%e3%83%81%e3%83%a3%e3%82%af%e3%83%a9%e5%a5%b3%e5%ad%90%e6%a0%a1%e7%94%9f%e3%81%a8%e9%ab%98-2/100%Daily2018-03-06 22:48
https://www.jpvrporn.com/2018/03/05/osl015-%e5%a5%b3%e5%ad%90%e9%ab%98%e7%94%9f%e3%81%ae%e6%97%a5%e5%b8%b8%ef%bc%81%ef%bc%9f%e3%80%80%e3%80%80%e3%82%b3%e3%83%b3%e3%82%bf%e3%82%af%e3%83%88%e3%82%92%e3%83%91%e3%83%b3%e3%83%81%e3%83%a9/100%Daily2018-03-06 22:48
https://www.jpvrporn.com/2018/03/05/osl014-school-girls-panchira/100%Daily2018-03-06 22:48
https://www.jpvrporn.com/2018/03/05/osl013-%e5%83%95%e3%81%a0%e3%81%91%e3%81%ae%e5%88%9d%e7%be%8e%e6%b2%99%e5%b8%8c%e3%80%80%e3%81%8a%e9%a2%a8%e5%91%82%e3%82%92%e8%a6%97%e3%81%8d%e8%a6%8b/100%Daily2018-03-06 22:48
https://www.jpvrporn.com/2018/03/05/osl012-first-misa-kiki-morning/100%Daily2018-03-06 22:48
https://www.jpvrporn.com/2018/03/05/osl006-%e5%83%95%e3%81%a0%e3%81%91%e3%81%ae%e5%88%9d%e7%be%8e%e6%b2%99%e5%b8%8c%ef%bc%88%e3%81%ab%e3%82%83%e3%83%bc%e3%81%a1%e3%82%83%e3%82%93%e7%b7%a8%ef%bc%89%e3%80%80%e7%8c%ab%e7%9b%ae%e7%b7%9a/100%Daily2018-03-06 22:48
https://www.jpvrporn.com/2018/03/05/osl004-%e5%83%95%e3%81%a0%e3%81%91%e3%81%ae%e5%88%9d%e7%be%8e%e6%b2%99%e5%b8%8c%e3%80%80%e9%a1%94%e3%81%8c%e8%bf%91%e3%81%8f%e3%81%a6%e3%83%89%e3%82%ad%e3%83%89%e3%82%ad%e3%81%99%e3%82%8b%e6%b7%bb/100%Daily2018-03-06 22:48
https://www.jpvrporn.com/2018/03/05/osl003-%e5%83%95%e3%81%a0%e3%81%91%e3%81%ae%e5%88%9d%e7%be%8e%e6%b2%99%e5%b8%8c%e3%80%80%e9%a8%8e%e4%b9%97%e4%bd%8d%e3%81%a7%e5%ad%90%e4%bd%9c%e3%82%8a%e3%81%8a%e3%81%ad%e3%81%a0%e3%82%8a/100%Daily2018-03-06 22:48
https://www.jpvrporn.com/2018/03/05/osl002-%e5%83%95%e3%81%a0%e3%81%91%e3%81%ae%e5%88%9d%e7%be%8e%e6%b2%99%e5%b8%8c%e3%80%80%e9%a8%8e%e4%b9%97%e4%bd%8d%e3%81%a7%e5%ad%90%e4%bd%9c%e3%82%8a%e3%81%8a%e3%81%ad%e3%81%a0%e3%82%8a%e3%80%80/100%Daily2018-03-06 22:48
https://www.jpvrporn.com/2018/03/04/prdvr-020-pdvr-020-%e3%80%90vr%e3%80%91%e6%84%9b%e3%81%82%e3%82%8b%e3%82%ad%e3%82%b9%e3%81%ae%e5%b5%90%ef%bc%81%e5%88%b6%e6%9c%8d%e3%82%ab%e3%83%8e%e3%82%b8%e3%83%a7%e3%83%bb%e5%9c%92%e7%94%b0-2/100%Daily2018-03-06 22:48
https://www.jpvrporn.com/2018/03/04/vvvr-004-%e3%80%90vivid-vr%e3%80%91%e5%a5%87%e8%b7%a1%e3%81%aew%e7%be%8e%e9%ad%94%e5%a5%b3%e3%81%8c%e7%94%b7%e3%81%ae%e7%b2%be%e6%b6%b2%e3%82%bc%e3%83%ad%e3%81%ab%e3%81%aa%e3%82%8b%e3%81%be%e3%81%a7/100%Daily2018-03-25 14:57
https://www.jpvrporn.com/2018/03/04/crvr-088-%e3%80%90%e5%8c%a0%e3%80%91%e6%9e%a2%e6%9c%a8%e3%81%82%e3%81%8a%e3%81%84-%e3%82%b9%e3%82%af%e6%b0%b4%e3%83%a1%e3%82%a4%e3%83%89%e3%81%a8%e4%b8%ad%e5%87%ba%e3%81%97sex%ef%bc%81%e3%83%9c/100%Daily2018-03-06 22:48
https://www.jpvrporn.com/2018/03/04/kmvr-284-2k3k-2017-09-14-%e5%a4%a7%e6%a7%bb%e3%81%b2%e3%81%b3%e3%81%8d-ootsuki-hibiki-%e5%8f%af%e6%84%9b%e3%81%99%e3%81%8e%e3%82%8b%e5%ae%b6%e5%ba%ad%e6%95%99%e5%b8%ab%e3%81%b2%e3%81%b3%e3%81%8d-2/100%Daily2018-03-06 22:48
https://www.jpvrporn.com/2018/03/04/kmvr-254-kmptk031-037-2017-07-25-suzuki-mayu-%e9%88%b4%e6%9c%a8%e7%9c%9f%e5%a4%95-%e5%b7%a8%e4%b9%b3%e7%be%8e%e4%ba%ba%e3%82%b9%e3%83%81%e3%83%a5%e3%83%af%e3%83%bc%e3%83%87%e3%82%b9%e3%81%aesex-2/100%Daily2018-03-06 22:48
https://www.jpvrporn.com/2018/03/04/exvr-096-2k3k-2017-12-28-hakii-haruka-%e6%b3%a2%e6%9c%a8%e3%81%af%e3%82%8b%e3%81%8b-%e3%80%90%e5%8c%a0%e3%80%91%e7%99%92%e3%81%97%e3%81%ae%e5%a4%a9%e4%bd%bf%ef%bc%81%e6%b3%a2%e6%9c%a8%e3%81%af-2/100%Daily2018-03-06 22:48
https://www.jpvrporn.com/2018/03/04/kmvr-061-%e3%80%90vr%e3%80%91%e9%80%b2%e5%8c%96%e7%b3%bbvr%e3%82%aa%e3%83%8a%e3%83%8b%e3%83%bc%ef%bc%81%ef%bc%81%e8%a6%8b%e3%81%a4%e3%82%81%e3%81%82%e3%81%84%e3%81%aa%e3%81%8c%e3%82%89%e4%b8%80/100%Daily2018-03-06 22:48
https://www.jpvrporn.com/2018/03/04/kmvr-056-%e3%80%90vr%e3%80%91w%e3%83%90%e3%83%8b%e3%83%bc%e3%82%ac%e3%83%bc%e3%83%ab-%e3%82%b9%e3%83%9a%e3%82%b7%e3%83%a3%e3%83%ab%e8%b6%b3%e3%82%b3%e3%82%ad-%e7%be%8e%e5%92%b2%e3%81%8b%e3%82%93/100%Daily2018-04-11 10:10
https://www.jpvrporn.com/2018/03/04/afes207-208-%e6%a8%aa%e5%b1%b1%e3%81%bf%e3%82%8c%e3%81%84%e3%81%a8vr%e3%83%97%e3%83%ac%e3%82%a4%ef%bc%81/100%Daily2018-03-06 22:48
https://www.jpvrporn.com/2018/03/04/mmcpvr-002-%e3%80%90vr%e3%80%91%e8%b6%85%e8%87%b3%e8%bf%91%e8%b7%9d%e9%9b%a2%e3%81%a7%e3%82%a2%e3%82%a4%e3%83%89%e3%83%ab%e3%83%80%e3%83%b3%e3%82%b9%ef%bc%86%e3%83%91%e3%83%b3%e3%83%81%e3%83%a9/100%Daily2018-03-06 22:48
https://www.jpvrporn.com/2018/03/03/dsvr-025-%e3%80%90vr%e3%80%91%e6%b3%89%e6%b0%b4%e3%82%89%e3%82%93%e3%81%a8%e3%83%a9%e3%83%96%e3%83%a9%e3%83%96sex-%e3%82%89%e3%82%93%e3%81%a1%e3%82%83%e3%82%93%e3%81%a8%e8%a6%8b%e3%81%a4%e3%82%81/100%Daily2018-03-06 22:48
https://www.jpvrporn.com/2018/03/03/vorm-026-%e3%80%90vr%e3%80%91%e9%95%b7%e5%b0%ba102%e5%88%86-%e7%94%b7%e3%81%ae%e5%a4%a2%e3%81%8c%e5%ae%9f%e7%8f%be%e3%81%99%e3%82%8b%ef%bc%81%e6%95%99%e5%ae%a4%e3%81%a7%e3%81%82%e3%82%93%e3%81%aa/100%Daily2018-03-06 22:48
https://www.jpvrporn.com/2018/03/03/sivr-015-%e3%80%90vr%e3%80%91%e6%96%b0%e5%9f%ba%e6%ba%96-vr-%e9%ab%98%e7%94%bb%e8%b3%aa%ef%bc%81100%ef%bc%85%e6%af%94%e7%8e%87%ef%bc%81%e9%95%b7%e5%b0%ba%ef%bc%81%e5%9b%bd%e6%b0%91%e7%9a%84%e3%82%a2/100%Daily2018-03-11 12:41
https://www.jpvrporn.com/2018/03/03/wpvr-105-%e6%8e%a8%e5%b7%9d%e3%82%86%e3%81%86%e3%82%8a-%e7%ab%a5%e8%b2%9e%e3%82%af%e3%83%b3%e3%81%a8%e4%b8%ad%e5%87%ba%e3%81%97%e4%b8%8d%e5%80%ab-2/100%Daily2018-03-06 22:48
https://www.jpvrporn.com/2018/03/03/kmvr-357-kvr1804-4-%e3%80%90%e5%8c%a0%e3%80%91%e3%82%ad%e3%82%b9%e3%81%8b%e3%82%89%e5%a7%8b%e3%81%be%e3%82%8b%e8%b6%85%e7%b5%b6%e5%80%ab%e5%bd%bc%e5%a5%b3%e3%81%ae%e3%83%a9%e3%83%96%e3%83%a9-2/100%Daily2018-03-06 22:48
https://www.jpvrporn.com/2018/03/03/oycvr-011-%e3%80%90vr%e3%80%91vr%e9%95%b7%e5%b0%ba-%e5%8e%b3%e3%81%97%e3%81%84%e5%a5%b3%e4%b8%8a%e5%8f%b8%e3%81%8c%e9%85%94%e3%81%a3%e6%89%95%e3%81%a3%e3%81%a6%e3%83%84%e3%83%b3%e3%83%87%e3%83%ac/100%Daily2018-03-06 22:48
https://www.jpvrporn.com/2018/03/03/yvry-002-%e3%80%90vr%e3%80%91%e9%95%b7%e5%b0%bavr-%e8%bf%91%e8%a6%aa%e7%9b%b8%e5%a7%a6%e7%8e%8b%e6%a7%98%e3%82%b2%e3%83%bc%e3%83%a0%e3%80%90%e3%82%b2%e3%83%bc%e3%83%a0%e5%8f%82%e5%8a%a0%e5%9e%8bvr/100%Daily2018-03-06 22:49
https://www.jpvrporn.com/2018/03/03/vvvr-003-%e3%80%90vr%e3%80%91%e5%a6%96%e8%89%b6%e9%81%8e%e3%81%8e%e3%82%8b%e6%b7%ab%e4%b9%b1%e7%be%a9%e6%af%8d%e3%81%ab%e8%aa%98%e3%82%8f%e3%82%8c%e3%80%81%e5%ab%81%e3%81%ae%e5%b1%85%e3%81%ac-2-2/100%Daily2018-03-06 22:49
https://www.jpvrporn.com/2018/03/03/vovs-370-%e3%80%90vr%e3%80%91%e9%95%b7%e5%b0%ba42%e5%88%86%e3%83%bb%e9%ab%98%e7%94%bb%e8%b3%aa-%e4%bd%90%e3%80%85%e6%9c%a8%e3%81%82%e3%81%8d%e3%81%a8%e7%94%98%e3%81%84%e3%83%a9%e3%83%96%e3%82%a4/100%Daily2018-03-06 22:49
https://www.jpvrporn.com/2018/03/03/vovs-340-%e3%80%90vr%e3%80%91%e9%95%b7%e5%b0%ba41%e5%88%86%e3%83%bb%e9%ab%98%e7%94%bb%e8%b3%aa-%e6%b0%b8%e4%ba%95%e3%81%bf%e3%81%b2%e3%81%aa-%e3%83%a9%e3%83%96%e3%83%a9%e3%83%96%e6%96%b0%e5%a9%9a/100%Daily2018-03-06 22:49
https://www.jpvrporn.com/2018/03/03/vovs-330-%e3%80%90vr%e3%80%91%e9%95%b7%e5%b0%ba43%e5%88%86%e3%83%bb%e9%ab%98%e7%94%bb%e8%b3%aa-%e5%94%be%e6%b6%b2%e3%82%bf%e3%83%83%e3%83%97%e3%83%aa%e8%88%90%e3%82%81%e7%97%b4%e5%a5%b3-%e6%bb%9d/100%Daily2018-03-06 22:49
https://www.jpvrporn.com/2018/03/03/vovs-321-%e3%80%90vr%e3%80%91%e9%95%b7%e5%b0%ba41%e5%88%86%e3%83%bb%e9%ab%98%e7%94%bb%e8%b3%aa-%e9%88%b4%e6%9c%a8%e7%9c%9f%e5%a4%95-%e8%a8%b1%e3%81%97%e3%81%a6%e3%80%81%e3%82%a2%e3%83%8a%e3%82%bf/100%Daily2018-03-06 22:49
https://www.jpvrporn.com/2018/03/03/vovs-311-%e3%80%90vr%e3%80%91%e9%95%b7%e5%b0%ba%e3%83%bb%e9%ab%98%e7%94%bb%e8%b3%aa-%e3%83%a9%e3%83%96%e3%82%a4%e3%83%81%e3%83%a3vr%e5%bd%bc%e5%a5%b3-%e3%82%aa%e3%83%88%e3%83%8a%e3%81%ae%e3%83%a9/100%Daily2018-03-06 22:49
https://www.jpvrporn.com/2018/03/03/tkrm-008-saitou-miyu-nagasawa-luna-%e6%96%89%e8%97%a4%e3%81%bf%e3%82%86-%e9%95%b7%e6%be%a4%e3%83%ab%e3%83%8a-2018-01-01-%e3%80%90%e5%8c%a0%e3%80%91%e3%81%8a%e5%ac%a2%e6%a7%98%e3%81%aa%e3%81%ae-2-2/100%Daily2018-03-06 22:49
https://www.jpvrporn.com/2018/03/03/tarm-007-2017-12-10-nonomiya-%e9%87%8e%e3%80%85%e5%ae%ae%e3%81%bf%e3%81%95%e3%81%a8-%e3%83%8d%e3%82%ab%e3%83%95%e3%82%a7%e3%81%a7%e3%81%93%e3%81%a3%e3%81%9d%e3%82%8asex-2-2-2/100%Daily2018-03-06 22:49
https://www.jpvrporn.com/2018/03/03/sivr-016-%e3%80%90vr%e3%80%91%e6%96%b0%e5%9f%ba%e6%ba%96-vr-%e9%ab%98%e7%94%bb%e8%b3%aa%ef%bc%81100%ef%bc%85%e6%af%94%e7%8e%87%ef%bc%81%e9%95%b7%e5%b0%ba%ef%bc%81%e5%9b%bd%e6%b0%91%e7%9a%84%e3%82%a2/100%Daily2018-03-06 22:49
https://www.jpvrporn.com/2018/03/03/pmaxvr-004-%e3%80%90vr%e3%80%91%e6%99%82%e9%96%93%e5%81%9c%e6%ad%a2vr%e3%80%90%e9%95%b7%e5%b0%ba%ef%bc%86%e6%94%b9%e8%89%af%e5%9e%8b%e8%a6%96%e7%82%b9%e7%a7%bb%e5%8b%95%e3%80%91%e9%80%9a%e5%8b%a4-2/100%Daily2018-03-06 22:49
https://www.jpvrporn.com/2018/03/03/kolvr-010-%e3%80%90vr%e3%80%91%e9%9c%b2%e5%a4%a9%e9%a2%a8%e5%91%82-%e8%87%b3%e3%82%8c%e3%82%8a%e3%81%a4%e3%81%8f%e3%81%9b%e3%82%8a%e3%83%ad%e3%83%bc%e3%82%b7%e3%83%a7%e3%83%b3-%e3%83%8f%e3%83%bc/100%Daily2018-03-06 22:49
https://www.jpvrporn.com/2018/03/03/avvr-228-%e3%80%90vr%e3%80%91%e6%bd%ae%e5%90%b9%e3%81%8d-%e3%82%8b%e3%83%bc%e3%81%a1%e3%82%83%e3%82%93-%e3%81%8a%e3%82%82%e3%81%a1%e3%82%83%e6%bf%80%e3%82%a4%e3%82%ab%e3%82%bb-%e4%bd%b3%e8%8b%97/100%Daily2018-03-06 22:49
https://www.jpvrporn.com/2018/03/03/avvr-227-%e3%80%90vr%e3%80%91%e8%a1%97%e3%81%a7%e5%99%82%e3%81%ae%e5%af%86%e7%9d%80%e7%97%b4%e5%a5%b3%e3%83%95%e3%82%a7%e3%83%a9%e3%82%a8%e3%82%b9%e3%83%86%ef%bd%9e%e5%87%84%e3%83%86%e3%82%af%ef%bc%81/100%Daily2018-03-06 22:49
https://www.jpvrporn.com/2018/03/02/prdvr-020-pdvr-020-%e3%80%90vr%e3%80%91%e6%84%9b%e3%81%82%e3%82%8b%e3%82%ad%e3%82%b9%e3%81%ae%e5%b5%90%ef%bc%81%e5%88%b6%e6%9c%8d%e3%82%ab%e3%83%8e%e3%82%b8%e3%83%a7%e3%83%bb%e5%9c%92%e7%94%b0/100%Daily2018-03-06 22:49
https://www.jpvrporn.com/2018/03/02/tkrm010-%e3%81%82%e3%81%8a%e3%81%84%e3%82%8c%e3%81%aa%e3%81%a1%e3%82%83%e3%82%93%e3%81%ae%e5%bd%bc%e6%b0%8f%e3%81%ab%e3%81%aa%e3%81%a3%e3%81%a6%e3%81%bf%e3%81%9f/100%Daily2018-04-16 16:58
https://www.jpvrporn.com/2018/03/02/kmvr-296-2017-10-13-kirishima-sakura-%e9%9c%a7%e5%b3%b6%e3%81%95%e3%81%8f%e3%82%89-%e3%81%9f%ef%bd%9e%e3%81%a3%e3%81%b7%e3%82%8a%e4%b9%b3%e9%a6%96%e3%82%92%e3%82%b3%e3%83%aa%e3%82%b3%e3%83%aa-2/100%Daily2018-03-06 22:49
https://www.jpvrporn.com/2018/03/02/kmvr-274-2k3k-2017-08-31-misuzu-kawabata-%e5%b7%9d%e8%8f%9c%e7%be%8e%e9%88%b4-%e7%be%8e%e4%ba%ba%e3%83%90%e3%82%b9%e3%82%ac%e3%82%a4%e3%83%89%e3%81%a8%e8%bb%8a%e5%86%85%e3%82%bb%e3%83%83%e3%82%af-2/100%Daily2018-03-06 22:49
https://www.jpvrporn.com/2018/03/02/exvr-075-2k3k-2017-09-21-%e4%b8%ad%e6%9d%91%e6%97%a5%e5%92%b2-nakamura-hisaki-%e3%81%8a%e4%bb%95%e4%ba%8b%e4%b8%ad%e3%81%ab%e7%99%ba%e6%83%85%e3%81%97%e3%81%a1%e3%82%83%e3%81%a3%e3%81%9f%e7%be%8e-2/100%Daily2018-03-06 22:49
https://www.jpvrporn.com/2018/03/02/bmvr-036-2017-08-16-kanae-renon-%e9%a6%99%e8%8b%97%e3%83%ac%e3%83%8e%e3%83%b3-first-time-vr-appearance-sakae-lennon-%e5%88%9d%e3%82%81%e3%81%a6%e3%81%aevr%e5%87%ba%e6%bc%94-2/100%Daily2018-03-06 22:49
https://www.jpvrporn.com/2018/03/02/kmvr-075-%e3%80%90vr%e3%80%91%e8%bc%9d%e6%9c%88%e3%81%82%e3%82%93%e3%82%8a-vr%e3%81%a0%e3%81%8b%e3%82%89%e6%9c%ac%e5%bd%93%e3%81%ab%e3%83%95%e3%82%a7%e3%83%a9%e3%83%81%e3%82%aa%e3%81%95%e3%82%8c/100%Daily2018-03-06 22:49
https://www.jpvrporn.com/2018/03/02/kmvr-027-%e3%80%90vr%e3%80%91%e9%ba%bb%e9%87%8c%e6%a2%a8%e5%a4%8f-%e3%82%aa%e3%83%9e%e2%97%8f%e3%82%b3%e3%81%b1%e3%81%a3%e3%81%8f%e3%82%8a%e3%82%aa%e3%83%8a%e3%83%8b%e3%83%bc%ef%bc%81%ef%bc%81/100%Daily2018-03-06 22:49
https://www.jpvrporn.com/2018/03/02/crvr-034-%e3%80%90vr%e3%80%91%e6%b0%b4%e6%be%a4%e3%82%8a%e3%81%93%e5%b7%a8%e4%b9%b3%e5%a5%b3%e5%ad%90%e6%a0%a1%e7%94%9f%e3%81%ae%e8%aa%98%e6%83%91%e3%82%a8%e3%83%83%e3%83%81%e3%80%8c%e3%82%bb/100%Daily2018-03-06 22:49
https://www.jpvrporn.com/2018/03/02/prdvr-009-2017-09-22-%e5%87%b0%e3%81%8b%e3%81%aa%e3%82%81-%e3%81%a8%e6%bf%83%e5%8e%9a%e3%83%8f%e3%83%a1%e6%bd%ae%e6%bf%80%e3%82%a4%e3%82%adsex%ef%bc%81%ef%bc%81-2-2/100%Daily2018-03-06 22:49
https://www.jpvrporn.com/2018/03/02/bzvr-004-kvr1712-30%e3%80%90vr%e3%80%91%e9%95%b7%e5%b0%ba-vr-%e3%82%a8%e3%83%ad%e3%81%99%e3%81%8e%e3%82%8b%e3%83%ac%e3%82%b8%e3%82%a7%e3%83%b3%e3%83%89vr%e5%ad%a6%e5%9c%92-%e9%ba%bb%e9%87%8c/100%Daily2018-03-06 22:49
https://www.jpvrporn.com/2018/03/01/wpvr-105-%e6%8e%a8%e5%b7%9d%e3%82%86%e3%81%86%e3%82%8a-%e7%ab%a5%e8%b2%9e%e3%82%af%e3%83%b3%e3%81%a8%e4%b8%ad%e5%87%ba%e3%81%97%e4%b8%8d%e5%80%ab/100%Daily2018-03-06 22:49
https://www.jpvrporn.com/2018/03/01/kmvr-357-kvr1804-4-%e3%80%90%e5%8c%a0%e3%80%91%e3%82%ad%e3%82%b9%e3%81%8b%e3%82%89%e5%a7%8b%e3%81%be%e3%82%8b%e8%b6%85%e7%b5%b6%e5%80%ab%e5%bd%bc%e5%a5%b3%e3%81%ae%e3%83%a9%e3%83%96%e3%83%a9/100%Daily2018-03-06 22:49
https://www.jpvrporn.com/2018/03/01/tkrm-001-2017-10-26-2k3k-kanna-flower-%e7%a5%9e%e7%b4%8d%e8%8a%b1-%e3%80%90%e5%8c%a0%e3%80%91%e7%a5%9e%e7%b4%8d%e8%8a%b1%e3%81%b9%e3%82%8d%e3%83%81%e3%83%a5%e3%82%a6%e6%bf%83%e5%8e%9a%e3%82%bb-2/100%Daily2018-03-06 22:49
https://www.jpvrporn.com/2018/03/01/prdvr-007-2k3k-version-2017-08-10-hasegawa-rui-%e9%95%b7%e8%b0%b7%e5%b7%9d%e3%82%8b%e3%81%84-%e3%80%8c%e3%82%8b%e3%81%84%e3%81%bd%e3%82%93%e3%81%8c%e5%88%9d%e3%82%81%e3%81%a6%e3%81%aevr%e3%81%ab-2/100%Daily2018-03-06 22:49
https://www.jpvrporn.com/2018/03/01/kvr1801-3-2k3k-2018-01-12-maijima-akari-%e8%88%9e%e5%b3%b6%e3%81%82%e3%81%8b%e3%82%8a-%e3%80%90%e5%8c%a0%e3%80%91%e9%a1%94%e3%81%a0%e3%81%91%e3%81%a7%e9%81%b8%e3%82%93%e3%81%a0%e3%83%87%e3%83%aa-2/100%Daily2018-03-06 22:49
https://www.jpvrporn.com/2018/03/01/tmavr-006-%e3%80%90vr%e3%80%91%e8%93%ae%e5%ae%9f%e3%82%af%e3%83%ac%e3%82%a2%e3%81%ae%e6%b7%ab%e8%aa%9e%ef%bc%86%e7%97%b4%e5%a5%b3vrsex/100%Daily2018-03-06 22:49
https://www.jpvrporn.com/2018/03/01/kmvr-089-%e3%80%90vr%e3%80%91%e6%9c%ac%e5%a4%9a%e7%94%b1%e5%a5%88-171cm%e9%ab%98%e8%ba%ab%e9%95%b7%e3%81%ae%e7%be%8e%e8%84%9a%e7%97%b4%e5%a5%b3%e3%81%8c%e3%81%82%e3%81%aa%e3%81%9f%e3%82%92%e8%a6%8b/100%Daily2018-03-06 22:49
https://www.jpvrporn.com/2018/03/01/kmvr-077-%e3%80%90vr%e3%80%91%e5%80%89%e5%a4%9a%e3%81%be%e3%81%8a-%e7%94%9f%e4%b8%ad%e5%87%ba%e3%81%97%e3%82%b9%e3%83%9a%e3%82%b7%e3%83%a3%e3%83%ab%ef%bc%81%ef%bc%81-vr%e3%81%a0%e3%81%8b%e3%82%89/100%Daily2018-03-06 22:49
https://www.jpvrporn.com/2018/03/01/kmvr-041-%e3%80%90vr%e3%80%91%e6%a4%8e%e5%90%8d%e3%81%9d%e3%82%89-vr%e3%83%a1%e3%82%a4%e3%83%89%e3%82%ad%e3%82%b9%ef%bc%86%e6%89%8b%e3%82%b3%e3%82%ad%e3%83%95%e3%82%a7%e3%83%a9-vr%e3%81%a0%e3%81%8b/100%Daily2018-03-06 22:49
https://www.jpvrporn.com/2018/03/01/vovs-336-%e3%80%90vr%e3%80%91%e9%95%b7%e5%b0%ba44%e5%88%86%e3%83%bb%e9%ab%98%e7%94%bb%e8%b3%aa-%e3%83%95%e3%82%a7%e3%83%a9%e5%a4%a7%e5%a5%bd%e3%81%8d%e5%a6%b9%e3%81%a8%e7%94%9f%e4%b8%ad%e5%87%ba/100%Daily2018-03-06 22:49
https://www.jpvrporn.com/2018/03/01/vovs-300-%e3%80%90vr%e3%80%91%e9%95%b7%e5%b0%ba42%e5%88%86%e3%83%bb%e9%ab%98%e7%94%bb%e8%b3%aa-%e3%81%b2%e3%81%aa%e3%81%bf%e3%82%8c%e3%82%93-%e3%83%a9%e3%83%96%e3%82%a4%e3%83%81%e3%83%a3vr%e8%b6%85/100%Daily2018-03-06 22:49